THY9 LTFM-KLAX
Flight info
| Callsign | THY9 |
|---|---|
| Flight time | 13h 21m |
| Altitude | 30000 |
| Route | VADEN N618 GOL DCT UTEKA/N0488F320 DCT SMI DCT ADULA DCT OBUTI DCT DEXIT DCT MAPOX DCT BIGGE DCT RAVLO Y70 OTBED L60 PENIL M144 BAGSO DCT REVNU DCT PIKIL/M082F340 DCT 57N020W 58N030W 58N040W 57N050W DCT HOIST/N0474F340 DCT 5430N06000W 53N070W 51N080W/N0472F360 4830N09000W DCT KP12G DCT KP84A DCT KD63U/N0475F380 DCT KU51Q DCT PROMT Q88 HAKMN ANJLL4 |
| Aircraft | B77W/H-SDE1E2E3FGHIJ2J3J4J5M1RWXY/LB1D1 |
Departure
| Time | 2026-04-24 06:11 |
|---|---|
| Airport | İstanbul Airport (LTFM) |
Arrival
| Time | 2026-04-24 19:32 |
|---|---|
| Airport | Los Angeles International Airport (KLAX) |
| Time | Latitude | Longitude | Altitude | Speed | Heading |
|---|---|---|---|---|---|
| 2026-04-24 05:01 | 41.26779 | 28.73621 | 340 ft | 0 kts | 180° |
| 2026-04-24 05:53 | 41.26790 | 28.73621 | 340 ft | 2 kts | 180° |
| 2026-04-24 05:53 | 41.26805 | 28.73621 | 340 ft | 2 kts | 180° |
| 2026-04-24 05:53 | 41.26820 | 28.73621 | 340 ft | 2 kts | 187° |
| 2026-04-24 05:54 | 41.26835 | 28.73626 | 340 ft | 2 kts | 208° |
| 2026-04-24 05:54 | 41.26847 | 28.73638 | 340 ft | 2 kts | 225° |
| 2026-04-24 05:54 | 41.26856 | 28.73653 | 340 ft | 2 kts | 242° |
| 2026-04-24 05:54 | 41.26862 | 28.73672 | 340 ft | 2 kts | 259° |
| 2026-04-24 05:55 | 41.26863 | 28.73684 | 340 ft | 1 kts | 270° |
| 2026-04-24 05:55 | 41.26863 | 28.73688 | 340 ft | 0 kts | 270° |
| 2026-04-24 05:57 | 41.26863 | 28.73687 | 340 ft | 0 kts | 270° |
| 2026-04-24 05:57 | 41.26863 | 28.73678 | 340 ft | 1 kts | 270° |
| 2026-04-24 05:58 | 41.26863 | 28.73656 | 340 ft | 2 kts | 270° |
| 2026-04-24 05:58 | 41.26863 | 28.73624 | 340 ft | 4 kts | 270° |
| 2026-04-24 05:58 | 41.26863 | 28.73579 | 340 ft | 5 kts | 270° |
| 2026-04-24 05:58 | 41.26861 | 28.73523 | 340 ft | 6 kts | 268° |
| 2026-04-24 05:59 | 41.26859 | 28.73456 | 340 ft | 7 kts | 269° |
| 2026-04-24 05:59 | 41.26859 | 28.73381 | 340 ft | 8 kts | 269° |
| 2026-04-24 05:59 | 41.26857 | 28.73297 | 340 ft | 9 kts | 269° |
| 2026-04-24 05:59 | 41.26857 | 28.73207 | 340 ft | 10 kts | 270° |
| 2026-04-24 06:00 | 41.26856 | 28.73110 | 340 ft | 10 kts | 270° |
| 2026-04-24 06:00 | 41.26871 | 28.73014 | 340 ft | 10 kts | 308° |
| 2026-04-24 06:00 | 41.26942 | 28.72988 | 340 ft | 11 kts | 0° |
| 2026-04-24 06:00 | 41.27023 | 28.72987 | 340 ft | 11 kts | 359° |
| 2026-04-24 06:01 | 41.27107 | 28.72984 | 340 ft | 12 kts | 359° |
| 2026-04-24 06:01 | 41.27193 | 28.72983 | 340 ft | 12 kts | 0° |
| 2026-04-24 06:01 | 41.27282 | 28.72982 | 340 ft | 12 kts | 358° |
| 2026-04-24 06:01 | 41.27374 | 28.72979 | 340 ft | 13 kts | 359° |
| 2026-04-24 06:02 | 41.27467 | 28.72977 | 340 ft | 13 kts | 359° |
| 2026-04-24 06:02 | 41.27561 | 28.72975 | 340 ft | 13 kts | 359° |
| 2026-04-24 06:02 | 41.27657 | 28.72975 | 340 ft | 13 kts | 360° |
| 2026-04-24 06:02 | 41.27753 | 28.72974 | 340 ft | 13 kts | 360° |
| 2026-04-24 06:03 | 41.27851 | 28.72970 | 340 ft | 14 kts | 357° |
| 2026-04-24 06:03 | 41.27950 | 28.72968 | 340 ft | 14 kts | 359° |
| 2026-04-24 06:03 | 41.28050 | 28.72965 | 340 ft | 14 kts | 359° |
| 2026-04-24 06:03 | 41.28151 | 28.72963 | 340 ft | 14 kts | 359° |
| 2026-04-24 06:04 | 41.28251 | 28.72961 | 340 ft | 14 kts | 359° |
| 2026-04-24 06:04 | 41.28353 | 28.72961 | 340 ft | 14 kts | 0° |
| 2026-04-24 06:04 | 41.28453 | 28.72959 | 340 ft | 14 kts | 359° |
| 2026-04-24 06:04 | 41.28556 | 28.72957 | 340 ft | 14 kts | 359° |
| 2026-04-24 06:05 | 41.28659 | 28.72954 | 340 ft | 14 kts | 359° |
| 2026-04-24 06:05 | 41.28761 | 28.72951 | 340 ft | 14 kts | 359° |
| 2026-04-24 06:05 | 41.28865 | 28.72949 | 340 ft | 14 kts | 359° |
| 2026-04-24 06:05 | 41.28968 | 28.72946 | 340 ft | 14 kts | 359° |
| 2026-04-24 06:06 | 41.29072 | 28.72947 | 340 ft | 14 kts | 1° |
| 2026-04-24 06:06 | 41.29175 | 28.72944 | 340 ft | 14 kts | 360° |
| 2026-04-24 06:06 | 41.29279 | 28.72943 | 340 ft | 14 kts | 360° |
| 2026-04-24 06:06 | 41.29384 | 28.72941 | 340 ft | 14 kts | 359° |
| 2026-04-24 06:07 | 41.29488 | 28.72939 | 340 ft | 14 kts | 359° |
| 2026-04-24 06:07 | 41.29592 | 28.72937 | 340 ft | 15 kts | 359° |
| 2026-04-24 06:07 | 41.29697 | 28.72935 | 340 ft | 15 kts | 359° |
| 2026-04-24 06:07 | 41.29798 | 28.72933 | 340 ft | 13 kts | 359° |
| 2026-04-24 06:08 | 41.29869 | 28.72876 | 340 ft | 12 kts | 283° |
| 2026-04-24 06:08 | 41.29871 | 28.72756 | 340 ft | 13 kts | 268° |
| 2026-04-24 06:08 | 41.29868 | 28.72632 | 340 ft | 13 kts | 268° |
| 2026-04-24 06:08 | 41.29866 | 28.72515 | 340 ft | 12 kts | 269° |
| 2026-04-24 06:09 | 41.29843 | 28.72457 | 340 ft | 7 kts | 200° |
| 2026-04-24 06:09 | 41.29822 | 28.72453 | 340 ft | 0 kts | 179° |
| 2026-04-24 06:09 | 41.29655 | 28.72459 | 340 ft | 60 kts | 179° |
| 2026-04-24 06:10 | 41.28977 | 28.72473 | 340 ft | 132 kts | 179° |
| 2026-04-24 06:10 | 41.27837 | 28.72495 | 341 ft | 195 kts | 179° |
| 2026-04-24 06:10 | 41.26302 | 28.72519 | 476 ft | 241 kts | 179° |
| 2026-04-24 06:11 | 41.22962 | 28.72657 | 2442 ft | 231 kts | 177° |
| 2026-04-24 06:11 | 41.21312 | 28.72658 | 2794 ft | 246 kts | 191° |
| 2026-04-24 06:11 | 41.19669 | 28.71803 | 3093 ft | 263 kts | 218° |
| 2026-04-24 06:11 | 41.18468 | 28.69949 | 3648 ft | 268 kts | 246° |
| 2026-04-24 06:12 | 41.18044 | 28.67562 | 4277 ft | 271 kts | 268° |
| 2026-04-24 06:12 | 41.18037 | 28.65063 | 4965 ft | 272 kts | 271° |
| 2026-04-24 06:12 | 41.18046 | 28.62542 | 5618 ft | 275 kts | 270° |
| 2026-04-24 06:12 | 41.18170 | 28.59997 | 6220 ft | 278 kts | 285° |
| 2026-04-24 06:13 | 41.19006 | 28.57704 | 6790 ft | 281 kts | 310° |
| 2026-04-24 06:13 | 41.20505 | 28.56079 | 7361 ft | 284 kts | 335° |
| 2026-04-24 06:13 | 41.22400 | 28.55412 | 7938 ft | 286 kts | 355° |
| 2026-04-24 06:13 | 41.24391 | 28.55285 | 8569 ft | 287 kts | 359° |
| 2026-04-24 06:14 | 41.26419 | 28.55246 | 9171 ft | 290 kts | 359° |
| 2026-04-24 06:14 | 41.28440 | 28.55212 | 9756 ft | 292 kts | 359° |
| 2026-04-24 06:14 | 41.30457 | 28.55181 | 10257 ft | 298 kts | 2° |
| 2026-04-24 06:14 | 41.32600 | 28.55425 | 10475 ft | 314 kts | 7° |
| 2026-04-24 06:15 | 41.34820 | 28.55768 | 10710 ft | 330 kts | 7° |
| 2026-04-24 06:15 | 41.37174 | 28.56130 | 10966 ft | 345 kts | 7° |
| 2026-04-24 06:15 | 41.39597 | 28.56499 | 11231 ft | 360 kts | 7° |
| 2026-04-24 06:15 | 41.42110 | 28.56880 | 11595 ft | 371 kts | 7° |
| 2026-04-24 06:16 | 41.44711 | 28.57116 | 12171 ft | 375 kts | 0° |
| 2026-04-24 06:16 | 41.47307 | 28.57078 | 12797 ft | 378 kts | 359° |
| 2026-04-24 06:16 | 41.49978 | 28.57019 | 13418 ft | 382 kts | 359° |
| 2026-04-24 06:16 | 41.52628 | 28.56962 | 14016 ft | 385 kts | 359° |
| 2026-04-24 06:17 | 41.55311 | 28.56904 | 14606 ft | 388 kts | 359° |
| 2026-04-24 06:17 | 41.58013 | 28.56847 | 15184 ft | 392 kts | 359° |
| 2026-04-24 06:17 | 41.60758 | 28.56790 | 15755 ft | 395 kts | 359° |
| 2026-04-24 06:17 | 41.63497 | 28.56602 | 16298 ft | 398 kts | 352° |
| 2026-04-24 06:18 | 41.66219 | 28.55813 | 16833 ft | 402 kts | 342° |
| 2026-04-24 06:18 | 41.68801 | 28.54397 | 17358 ft | 405 kts | 332° |
| 2026-04-24 06:18 | 41.71174 | 28.52381 | 17873 ft | 408 kts | 322° |
| 2026-04-24 06:18 | 41.73260 | 28.49811 | 18378 ft | 411 kts | 312° |
| 2026-04-24 06:19 | 41.74982 | 28.46761 | 18874 ft | 414 kts | 302° |
| 2026-04-24 06:19 | 41.76284 | 28.43286 | 19364 ft | 417 kts | 291° |
| 2026-04-24 06:19 | 41.77072 | 28.39679 | 19824 ft | 420 kts | 281° |
| 2026-04-24 06:19 | 41.77415 | 28.35696 | 20310 ft | 423 kts | 274° |
| 2026-04-24 06:20 | 41.77594 | 28.31762 | 20796 ft | 426 kts | 273° |
| 2026-04-24 06:20 | 41.77776 | 28.27797 | 21264 ft | 429 kts | 273° |
| 2026-04-24 06:20 | 41.77993 | 28.23807 | 21707 ft | 432 kts | 277° |
| 2026-04-24 06:20 | 41.78600 | 28.19847 | 22131 ft | 434 kts | 287° |
| 2026-04-24 06:21 | 41.79688 | 28.16101 | 22543 ft | 437 kts | 296° |
| 2026-04-24 06:21 | 41.81173 | 28.12555 | 22960 ft | 440 kts | 301° |
| 2026-04-24 06:21 | 41.82767 | 28.08989 | 23380 ft | 442 kts | 301° |
| 2026-04-24 06:21 | 41.84285 | 28.05397 | 23764 ft | 445 kts | 295° |
| 2026-04-24 06:22 | 41.85406 | 28.01508 | 24126 ft | 448 kts | 286° |
| 2026-04-24 06:22 | 41.86034 | 27.97412 | 24486 ft | 451 kts | 276° |
| 2026-04-24 06:22 | 41.86250 | 27.93233 | 24858 ft | 453 kts | 272° |
| 2026-04-24 06:22 | 41.86386 | 27.89006 | 25235 ft | 455 kts | 272° |
| 2026-04-24 06:23 | 41.86517 | 27.84772 | 25595 ft | 458 kts | 272° |
| 2026-04-24 06:23 | 41.86650 | 27.80469 | 25952 ft | 460 kts | 272° |
| 2026-04-24 06:23 | 41.86780 | 27.76204 | 26302 ft | 463 kts | 272° |
| 2026-04-24 06:23 | 41.86910 | 27.71910 | 26649 ft | 465 kts | 272° |
| 2026-04-24 06:24 | 41.87040 | 27.67588 | 26992 ft | 467 kts | 272° |
| 2026-04-24 06:24 | 41.87170 | 27.63208 | 27334 ft | 470 kts | 272° |
| 2026-04-24 06:24 | 41.87307 | 27.58811 | 27666 ft | 472 kts | 274° |
| 2026-04-24 06:24 | 41.87756 | 27.54491 | 27982 ft | 475 kts | 283° |
| 2026-04-24 06:25 | 41.88713 | 27.50232 | 28290 ft | 477 kts | 292° |
| 2026-04-24 06:25 | 41.90144 | 27.46238 | 28592 ft | 479 kts | 301° |
| 2026-04-24 06:25 | 41.92029 | 27.42569 | 28893 ft | 482 kts | 310° |
| 2026-04-24 06:25 | 41.94264 | 27.39219 | 29213 ft | 484 kts | 313° |
| 2026-04-24 06:26 | 41.96562 | 27.35936 | 29645 ft | 483 kts | 314° |
| 2026-04-24 06:26 | 41.98860 | 27.32651 | 29962 ft | 484 kts | 313° |
| 2026-04-24 06:26 | 42.01167 | 27.29344 | 29982 ft | 484 kts | 313° |
| 2026-04-24 06:27 | 42.05729 | 27.22779 | 29985 ft | 480 kts | 313° |
| 2026-04-24 06:27 | 42.10235 | 27.16121 | 29986 ft | 481 kts | 311° |
| 2026-04-24 06:28 | 42.14690 | 27.09413 | 29986 ft | 480 kts | 311° |
| 2026-04-24 06:28 | 42.19128 | 27.02720 | 29986 ft | 480 kts | 311° |
| 2026-04-24 06:29 | 42.23577 | 26.96000 | 29986 ft | 480 kts | 311° |
| 2026-04-24 06:29 | 42.28033 | 26.89255 | 29986 ft | 480 kts | 311° |
| 2026-04-24 06:30 | 42.32462 | 26.82537 | 29986 ft | 480 kts | 311° |
| 2026-04-24 06:30 | 42.36894 | 26.75800 | 29986 ft | 480 kts | 311° |
| 2026-04-24 06:31 | 42.41327 | 26.69045 | 29986 ft | 480 kts | 311° |
| 2026-04-24 06:31 | 42.45752 | 26.62287 | 29986 ft | 480 kts | 311° |
| 2026-04-24 06:32 | 42.50179 | 26.55509 | 29986 ft | 480 kts | 311° |
| 2026-04-24 06:32 | 42.54156 | 26.48257 | 29984 ft | 480 kts | 298° |
| 2026-04-24 06:33 | 42.56626 | 26.39905 | 29986 ft | 481 kts | 289° |
| 2026-04-24 06:33 | 42.58815 | 26.31328 | 29986 ft | 480 kts | 289° |
| 2026-04-24 06:34 | 42.60978 | 26.22796 | 29986 ft | 480 kts | 289° |
| 2026-04-24 06:34 | 42.63149 | 26.14188 | 29985 ft | 480 kts | 289° |
| 2026-04-24 06:35 | 42.65294 | 26.05649 | 29985 ft | 480 kts | 289° |
| 2026-04-24 06:35 | 42.67444 | 25.97053 | 29984 ft | 480 kts | 289° |
| 2026-04-24 06:36 | 42.69582 | 25.88476 | 29984 ft | 480 kts | 289° |
| 2026-04-24 06:36 | 42.71726 | 25.79838 | 29984 ft | 480 kts | 289° |
| 2026-04-24 06:37 | 42.73848 | 25.71261 | 29983 ft | 480 kts | 289° |
| 2026-04-24 06:37 | 42.75970 | 25.62649 | 29983 ft | 480 kts | 289° |
| 2026-04-24 06:38 | 42.78073 | 25.54081 | 29983 ft | 480 kts | 289° |
| 2026-04-24 06:38 | 42.80175 | 25.45486 | 29983 ft | 480 kts | 289° |
| 2026-04-24 06:39 | 42.82273 | 25.36874 | 29983 ft | 480 kts | 289° |
| 2026-04-24 06:39 | 42.84380 | 25.28195 | 29984 ft | 480 kts | 288° |
| 2026-04-24 06:40 | 42.86453 | 25.19622 | 29984 ft | 480 kts | 288° |
| 2026-04-24 06:40 | 42.88541 | 25.10956 | 29984 ft | 480 kts | 288° |
| 2026-04-24 06:41 | 42.90608 | 25.02344 | 29984 ft | 480 kts | 288° |
| 2026-04-24 06:41 | 42.92681 | 24.93668 | 29984 ft | 480 kts | 288° |
| 2026-04-24 06:42 | 42.94733 | 24.85055 | 29984 ft | 480 kts | 288° |
| 2026-04-24 06:42 | 42.96793 | 24.76374 | 29984 ft | 480 kts | 288° |
| 2026-04-24 06:43 | 42.98832 | 24.67743 | 29984 ft | 480 kts | 288° |
| 2026-04-24 06:43 | 43.00875 | 24.59067 | 29985 ft | 480 kts | 288° |
| 2026-04-24 06:44 | 43.02905 | 24.50412 | 29985 ft | 480 kts | 288° |
| 2026-04-24 06:44 | 43.04945 | 24.41677 | 29985 ft | 480 kts | 288° |
| 2026-04-24 06:45 | 43.06964 | 24.33001 | 29985 ft | 480 kts | 287° |
| 2026-04-24 06:45 | 43.08989 | 24.24344 | 29979 ft | 480 kts | 290° |
| 2026-04-24 06:46 | 43.12096 | 24.16237 | 29989 ft | 481 kts | 302° |
| 2026-04-24 06:46 | 43.15681 | 24.08514 | 29986 ft | 480 kts | 302° |
| 2026-04-24 06:47 | 43.19246 | 24.00787 | 29986 ft | 480 kts | 302° |
| 2026-04-24 06:47 | 43.22793 | 23.93055 | 29986 ft | 480 kts | 302° |
| 2026-04-24 06:48 | 43.26335 | 23.85299 | 29986 ft | 480 kts | 302° |
| 2026-04-24 06:48 | 43.29858 | 23.77561 | 29986 ft | 480 kts | 302° |
| 2026-04-24 06:49 | 43.33373 | 23.69815 | 29986 ft | 480 kts | 302° |
| 2026-04-24 06:49 | 43.36900 | 23.62020 | 29986 ft | 480 kts | 302° |
| 2026-04-24 06:50 | 43.40424 | 23.54210 | 29986 ft | 480 kts | 302° |
| 2026-04-24 06:50 | 43.43929 | 23.46420 | 29986 ft | 480 kts | 302° |
| 2026-04-24 06:51 | 43.47410 | 23.38665 | 29986 ft | 480 kts | 302° |
| 2026-04-24 06:51 | 43.50927 | 23.30806 | 29986 ft | 480 kts | 301° |
| 2026-04-24 06:52 | 43.54417 | 23.22987 | 29986 ft | 480 kts | 301° |
| 2026-04-24 06:52 | 43.57892 | 23.15181 | 29986 ft | 480 kts | 301° |
| 2026-04-24 06:53 | 43.61367 | 23.07353 | 29986 ft | 480 kts | 301° |
| 2026-04-24 06:53 | 43.64850 | 22.99488 | 29986 ft | 480 kts | 301° |
| 2026-04-24 06:54 | 43.68334 | 22.91598 | 29986 ft | 480 kts | 301° |
| 2026-04-24 06:54 | 43.71800 | 22.83726 | 29986 ft | 480 kts | 301° |
| 2026-04-24 06:55 | 43.75269 | 22.75827 | 29986 ft | 480 kts | 301° |
| 2026-04-24 06:55 | 43.78702 | 22.67990 | 29986 ft | 480 kts | 301° |
| 2026-04-24 06:56 | 43.82161 | 22.60072 | 29986 ft | 480 kts | 301° |
| 2026-04-24 06:56 | 43.85590 | 22.52198 | 29986 ft | 480 kts | 301° |
| 2026-04-24 06:57 | 43.89034 | 22.44272 | 29986 ft | 480 kts | 301° |
| 2026-04-24 06:57 | 43.92422 | 22.36336 | 29985 ft | 480 kts | 299° |
| 2026-04-24 06:58 | 43.95577 | 22.28176 | 29986 ft | 481 kts | 298° |
| 2026-04-24 06:58 | 43.98740 | 22.19976 | 29986 ft | 480 kts | 298° |
| 2026-04-24 06:59 | 44.01869 | 22.11868 | 29986 ft | 480 kts | 298° |
| 2026-04-24 06:59 | 44.05026 | 22.03677 | 29986 ft | 480 kts | 298° |
| 2026-04-24 07:00 | 44.08176 | 21.95491 | 29985 ft | 480 kts | 298° |
| 2026-04-24 07:00 | 44.11328 | 21.87275 | 29985 ft | 480 kts | 298° |
| 2026-04-24 07:01 | 44.14466 | 21.79079 | 29985 ft | 480 kts | 298° |
| 2026-04-24 07:01 | 44.17582 | 21.70915 | 29985 ft | 480 kts | 298° |
| 2026-04-24 07:02 | 44.20708 | 21.62702 | 29985 ft | 480 kts | 298° |
| 2026-04-24 07:02 | 44.23823 | 21.54494 | 29986 ft | 480 kts | 298° |
| 2026-04-24 07:03 | 44.26922 | 21.46305 | 29986 ft | 480 kts | 298° |
| 2026-04-24 07:03 | 44.30035 | 21.38053 | 29986 ft | 480 kts | 298° |
| 2026-04-24 07:04 | 44.33140 | 21.29799 | 29986 ft | 480 kts | 297° |
| 2026-04-24 07:04 | 44.36230 | 21.21562 | 29986 ft | 480 kts | 297° |
| 2026-04-24 07:05 | 44.39318 | 21.13304 | 29986 ft | 480 kts | 297° |
| 2026-04-24 07:05 | 44.42387 | 21.05072 | 29986 ft | 480 kts | 297° |
| 2026-04-24 07:06 | 44.45465 | 20.96791 | 29986 ft | 480 kts | 297° |
| 2026-04-24 07:06 | 44.48539 | 20.88496 | 29986 ft | 480 kts | 297° |
| 2026-04-24 07:07 | 44.51601 | 20.80211 | 29986 ft | 480 kts | 297° |
| 2026-04-24 07:07 | 44.56184 | 20.67758 | 29986 ft | 480 kts | 297° |
| 2026-04-24 07:08 | 44.59228 | 20.59460 | 29986 ft | 480 kts | 297° |
| 2026-04-24 07:08 | 44.62279 | 20.51114 | 29986 ft | 480 kts | 297° |
| 2026-04-24 07:09 | 44.65315 | 20.42786 | 29986 ft | 480 kts | 297° |
| 2026-04-24 07:09 | 44.68339 | 20.34462 | 29986 ft | 480 kts | 297° |
| 2026-04-24 07:10 | 44.71365 | 20.26112 | 29987 ft | 480 kts | 297° |
| 2026-04-24 07:10 | 44.74376 | 20.17775 | 29987 ft | 480 kts | 297° |
| 2026-04-24 07:11 | 44.77395 | 20.09390 | 29987 ft | 480 kts | 297° |
| 2026-04-24 07:11 | 44.80397 | 20.01028 | 29987 ft | 480 kts | 297° |
| 2026-04-24 07:12 | 44.83411 | 19.92605 | 29987 ft | 480 kts | 297° |
| 2026-04-24 07:12 | 44.86411 | 19.84198 | 29987 ft | 480 kts | 297° |
| 2026-04-24 07:13 | 44.89398 | 19.75798 | 29986 ft | 480 kts | 297° |
| 2026-04-24 07:13 | 44.92374 | 19.67404 | 29986 ft | 480 kts | 297° |
| 2026-04-24 07:14 | 44.95359 | 19.58960 | 29986 ft | 480 kts | 297° |
| 2026-04-24 07:14 | 44.98310 | 19.50585 | 29986 ft | 480 kts | 297° |
| 2026-04-24 07:15 | 45.01272 | 19.42150 | 29986 ft | 480 kts | 296° |
| 2026-04-24 07:15 | 45.04140 | 19.33616 | 29986 ft | 480 kts | 295° |
| 2026-04-24 07:16 | 45.06974 | 19.25113 | 29987 ft | 480 kts | 295° |
| 2026-04-24 07:16 | 45.09819 | 19.16559 | 29987 ft | 480 kts | 295° |
| 2026-04-24 07:17 | 45.12637 | 19.08066 | 29987 ft | 480 kts | 295° |
| 2026-04-24 07:17 | 45.15471 | 18.99502 | 29987 ft | 480 kts | 295° |
| 2026-04-24 07:18 | 45.18302 | 18.90920 | 29987 ft | 480 kts | 295° |
| 2026-04-24 07:18 | 45.21106 | 18.82395 | 29987 ft | 480 kts | 295° |
| 2026-04-24 07:19 | 45.23922 | 18.73805 | 29987 ft | 480 kts | 295° |
| 2026-04-24 07:19 | 45.26751 | 18.65239 | 29980 ft | 480 kts | 298° |
| 2026-04-24 07:20 | 45.30380 | 18.57323 | 29986 ft | 481 kts | 305° |
| 2026-04-24 07:20 | 45.34181 | 18.49526 | 29987 ft | 480 kts | 305° |
| 2026-04-24 07:21 | 45.37956 | 18.41750 | 29987 ft | 480 kts | 305° |
| 2026-04-24 07:21 | 45.41723 | 18.33961 | 29987 ft | 480 kts | 304° |
| 2026-04-24 07:22 | 45.45495 | 18.26138 | 29986 ft | 480 kts | 304° |
| 2026-04-24 07:22 | 45.49261 | 18.18303 | 29986 ft | 480 kts | 304° |
| 2026-04-24 07:23 | 45.53033 | 18.10432 | 29986 ft | 480 kts | 304° |
| 2026-04-24 07:23 | 45.56781 | 18.02588 | 29986 ft | 480 kts | 304° |
| 2026-04-24 07:24 | 45.60542 | 17.94697 | 29986 ft | 480 kts | 304° |
| 2026-04-24 07:24 | 45.64285 | 17.86820 | 29986 ft | 480 kts | 304° |
| 2026-04-24 07:25 | 45.68021 | 17.78937 | 29986 ft | 480 kts | 304° |
| 2026-04-24 07:25 | 45.71738 | 17.71070 | 29986 ft | 480 kts | 304° |
| 2026-04-24 07:26 | 45.75418 | 17.63261 | 29986 ft | 480 kts | 304° |
| 2026-04-24 07:26 | 45.79124 | 17.55374 | 29986 ft | 480 kts | 304° |
| 2026-04-24 07:27 | 45.82848 | 17.47427 | 29986 ft | 480 kts | 304° |
| 2026-04-24 07:27 | 45.86544 | 17.39517 | 29986 ft | 480 kts | 304° |
| 2026-04-24 07:28 | 45.90263 | 17.31536 | 29986 ft | 480 kts | 303° |
| 2026-04-24 07:28 | 45.93976 | 17.23547 | 29986 ft | 480 kts | 303° |
| 2026-04-24 07:29 | 45.97649 | 17.15619 | 29986 ft | 480 kts | 303° |
| 2026-04-24 07:29 | 46.01368 | 17.07570 | 29986 ft | 480 kts | 303° |
| 2026-04-24 07:30 | 46.05027 | 16.99627 | 29986 ft | 480 kts | 303° |
| 2026-04-24 07:30 | 46.08711 | 16.91609 | 29986 ft | 480 kts | 303° |
| 2026-04-24 07:31 | 46.12396 | 16.83565 | 29986 ft | 480 kts | 303° |
| 2026-04-24 07:31 | 46.16038 | 16.75591 | 29986 ft | 480 kts | 303° |
| 2026-04-24 07:32 | 46.19693 | 16.67567 | 29986 ft | 480 kts | 303° |
| 2026-04-24 07:32 | 46.23351 | 16.59514 | 29986 ft | 480 kts | 303° |
| 2026-04-24 07:33 | 46.27002 | 16.51452 | 29986 ft | 480 kts | 303° |
| 2026-04-24 07:33 | 46.30639 | 16.43398 | 29986 ft | 480 kts | 303° |
| 2026-04-24 07:34 | 46.34285 | 16.35300 | 29986 ft | 480 kts | 303° |
| 2026-04-24 07:34 | 46.38169 | 16.27631 | 29984 ft | 480 kts | 314° |
| 2026-04-24 07:35 | 46.43337 | 16.21609 | 29989 ft | 480 kts | 325° |
| 2026-04-24 07:35 | 46.48821 | 16.16102 | 29986 ft | 480 kts | 325° |
| 2026-04-24 07:36 | 46.54289 | 16.10561 | 29986 ft | 480 kts | 325° |
| 2026-04-24 07:36 | 46.59751 | 16.04990 | 29986 ft | 480 kts | 324° |
| 2026-04-24 07:37 | 46.65207 | 15.99398 | 29986 ft | 480 kts | 324° |
| 2026-04-24 07:37 | 46.70645 | 15.93802 | 29986 ft | 480 kts | 324° |
| 2026-04-24 07:38 | 46.76083 | 15.88190 | 29986 ft | 480 kts | 324° |
| 2026-04-24 07:38 | 46.81512 | 15.82572 | 29986 ft | 480 kts | 324° |
| 2026-04-24 07:39 | 46.86953 | 15.76925 | 29986 ft | 480 kts | 324° |
| 2026-04-24 07:39 | 46.92358 | 15.71301 | 29986 ft | 480 kts | 324° |
| 2026-04-24 07:40 | 46.97781 | 15.65644 | 29986 ft | 480 kts | 324° |
| 2026-04-24 07:40 | 47.03213 | 15.59962 | 29986 ft | 480 kts | 324° |
| 2026-04-24 07:41 | 47.08637 | 15.54274 | 29985 ft | 480 kts | 324° |
| 2026-04-24 07:41 | 47.14068 | 15.48565 | 29985 ft | 480 kts | 324° |
| 2026-04-24 07:42 | 47.19459 | 15.42882 | 29985 ft | 480 kts | 324° |
| 2026-04-24 07:42 | 47.24913 | 15.37119 | 29985 ft | 480 kts | 324° |
| 2026-04-24 07:43 | 47.30327 | 15.31383 | 29984 ft | 480 kts | 324° |
| 2026-04-24 07:43 | 47.35739 | 15.25634 | 29984 ft | 480 kts | 324° |
| 2026-04-24 07:44 | 47.41166 | 15.19855 | 29984 ft | 480 kts | 324° |
| 2026-04-24 07:44 | 47.46566 | 15.14090 | 29984 ft | 480 kts | 324° |
| 2026-04-24 07:45 | 47.51954 | 15.08322 | 29984 ft | 480 kts | 324° |
| 2026-04-24 07:45 | 47.57333 | 15.02548 | 29984 ft | 480 kts | 324° |
| 2026-04-24 07:46 | 47.62739 | 14.96732 | 29984 ft | 480 kts | 324° |
| 2026-04-24 07:46 | 47.68109 | 14.90938 | 29984 ft | 480 kts | 324° |
| 2026-04-24 07:47 | 47.73518 | 14.85088 | 29983 ft | 480 kts | 324° |
| 2026-04-24 07:47 | 47.78893 | 14.79259 | 29983 ft | 480 kts | 324° |
| 2026-04-24 07:48 | 47.84261 | 14.73421 | 29984 ft | 480 kts | 324° |
| 2026-04-24 07:48 | 47.89634 | 14.67565 | 29984 ft | 480 kts | 324° |
| 2026-04-24 07:49 | 47.95011 | 14.61687 | 29985 ft | 480 kts | 324° |
| 2026-04-24 07:49 | 48.00377 | 14.55806 | 29985 ft | 480 kts | 324° |
| 2026-04-24 07:50 | 48.05756 | 14.49895 | 29985 ft | 480 kts | 324° |
| 2026-04-24 07:50 | 48.11136 | 14.43967 | 29986 ft | 480 kts | 324° |
| 2026-04-24 07:51 | 48.16503 | 14.38038 | 29986 ft | 480 kts | 324° |
| 2026-04-24 07:51 | 48.21886 | 14.32075 | 29986 ft | 480 kts | 323° |
| 2026-04-24 07:52 | 48.27220 | 14.26151 | 29986 ft | 480 kts | 323° |
| 2026-04-24 07:52 | 48.32590 | 14.20171 | 29985 ft | 480 kts | 323° |
| 2026-04-24 07:53 | 48.37910 | 14.14232 | 29985 ft | 480 kts | 323° |
| 2026-04-24 07:53 | 48.43291 | 14.08207 | 29985 ft | 480 kts | 323° |
| 2026-04-24 07:54 | 48.48618 | 14.02228 | 29985 ft | 480 kts | 323° |
| 2026-04-24 07:54 | 48.53977 | 13.96195 | 29985 ft | 480 kts | 323° |
| 2026-04-24 07:55 | 48.59302 | 13.90185 | 29985 ft | 480 kts | 323° |
| 2026-04-24 07:55 | 48.64658 | 13.84124 | 29985 ft | 480 kts | 323° |
| 2026-04-24 07:56 | 48.69980 | 13.78085 | 29985 ft | 480 kts | 323° |
| 2026-04-24 07:56 | 48.75250 | 13.71926 | 29980 ft | 480 kts | 317° |
| 2026-04-24 07:57 | 48.79671 | 13.64380 | 29985 ft | 480 kts | 309° |
| 2026-04-24 07:57 | 48.83854 | 13.56527 | 29985 ft | 480 kts | 309° |
| 2026-04-24 07:58 | 48.88041 | 13.48610 | 29984 ft | 480 kts | 309° |
| 2026-04-24 07:58 | 48.92175 | 13.40756 | 29984 ft | 480 kts | 309° |
| 2026-04-24 07:59 | 48.96337 | 13.32817 | 29984 ft | 480 kts | 308° |
| 2026-04-24 07:59 | 49.00511 | 13.24829 | 29985 ft | 480 kts | 308° |
| 2026-04-24 08:00 | 49.04637 | 13.16904 | 29985 ft | 480 kts | 308° |
| 2026-04-24 08:00 | 49.08763 | 13.08956 | 29985 ft | 480 kts | 308° |
| 2026-04-24 08:01 | 49.12912 | 13.00939 | 29985 ft | 480 kts | 308° |
| 2026-04-24 08:01 | 49.17020 | 12.92978 | 29985 ft | 480 kts | 308° |
| 2026-04-24 08:02 | 49.21146 | 12.84955 | 29985 ft | 480 kts | 308° |
| 2026-04-24 08:02 | 49.25251 | 12.76951 | 29986 ft | 480 kts | 308° |
| 2026-04-24 08:03 | 49.29373 | 12.68888 | 29986 ft | 480 kts | 308° |
| 2026-04-24 08:03 | 49.33483 | 12.60824 | 29985 ft | 480 kts | 308° |
| 2026-04-24 08:04 | 49.37566 | 12.52790 | 29985 ft | 480 kts | 308° |
| 2026-04-24 08:04 | 49.41648 | 12.44734 | 29985 ft | 480 kts | 308° |
| 2026-04-24 08:05 | 49.45749 | 12.36614 | 29985 ft | 480 kts | 308° |
| 2026-04-24 08:05 | 49.49817 | 12.28537 | 29985 ft | 480 kts | 307° |
| 2026-04-24 08:06 | 49.53895 | 12.20413 | 29985 ft | 480 kts | 307° |
| 2026-04-24 08:06 | 49.57934 | 12.12342 | 29985 ft | 480 kts | 307° |
| 2026-04-24 08:07 | 49.61988 | 12.04218 | 29985 ft | 480 kts | 307° |
| 2026-04-24 08:07 | 49.66061 | 11.96030 | 29985 ft | 480 kts | 307° |
| 2026-04-24 08:08 | 49.70098 | 11.87890 | 29985 ft | 480 kts | 307° |
| 2026-04-24 08:09 | 49.76146 | 11.75647 | 29985 ft | 480 kts | 307° |
| 2026-04-24 08:09 | 49.80109 | 11.67595 | 29985 ft | 480 kts | 307° |
| 2026-04-24 08:10 | 49.84099 | 11.59460 | 29985 ft | 480 kts | 307° |
| 2026-04-24 08:10 | 49.88084 | 11.51314 | 29985 ft | 480 kts | 307° |
| 2026-04-24 08:11 | 49.92111 | 11.43055 | 29986 ft | 480 kts | 307° |
| 2026-04-24 08:11 | 49.96120 | 11.34807 | 29985 ft | 480 kts | 307° |
| 2026-04-24 08:12 | 50.00128 | 11.26534 | 29985 ft | 480 kts | 307° |
| 2026-04-24 08:12 | 50.04109 | 11.18294 | 29985 ft | 480 kts | 307° |
| 2026-04-24 08:13 | 50.08117 | 11.09969 | 29986 ft | 480 kts | 307° |
| 2026-04-24 08:13 | 50.12048 | 11.01780 | 29986 ft | 480 kts | 307° |
| 2026-04-24 08:14 | 50.16043 | 10.93430 | 29986 ft | 480 kts | 307° |
| 2026-04-24 08:14 | 50.20006 | 10.85123 | 29986 ft | 480 kts | 307° |
| 2026-04-24 08:15 | 50.23982 | 10.76760 | 29986 ft | 480 kts | 307° |
| 2026-04-24 08:15 | 50.27940 | 10.68411 | 29986 ft | 480 kts | 307° |
| 2026-04-24 08:16 | 50.31916 | 10.59994 | 29986 ft | 480 kts | 307° |
| 2026-04-24 08:16 | 50.35864 | 10.51612 | 29986 ft | 480 kts | 307° |
| 2026-04-24 08:17 | 50.39794 | 10.43240 | 29985 ft | 480 kts | 307° |
| 2026-04-24 08:17 | 50.43746 | 10.34797 | 29985 ft | 480 kts | 306° |
| 2026-04-24 08:18 | 50.47694 | 10.26333 | 29985 ft | 480 kts | 306° |
| 2026-04-24 08:18 | 50.51615 | 10.17899 | 29985 ft | 480 kts | 306° |
| 2026-04-24 08:19 | 50.55536 | 10.09439 | 29985 ft | 480 kts | 306° |
| 2026-04-24 08:19 | 50.59450 | 10.00966 | 29985 ft | 480 kts | 306° |
| 2026-04-24 08:20 | 50.63387 | 9.92419 | 29985 ft | 480 kts | 306° |
| 2026-04-24 08:20 | 50.67291 | 9.83912 | 29986 ft | 480 kts | 306° |
| 2026-04-24 08:21 | 50.71166 | 9.75442 | 29986 ft | 480 kts | 306° |
| 2026-04-24 08:21 | 50.75062 | 9.66899 | 29986 ft | 480 kts | 306° |
| 2026-04-24 08:22 | 50.78945 | 9.58356 | 29986 ft | 480 kts | 306° |
| 2026-04-24 08:22 | 50.82850 | 9.49735 | 29986 ft | 480 kts | 306° |
| 2026-04-24 08:23 | 50.86725 | 9.41154 | 29986 ft | 480 kts | 306° |
| 2026-04-24 08:23 | 50.90579 | 9.32592 | 29986 ft | 480 kts | 305° |
| 2026-04-24 08:24 | 50.94443 | 9.23977 | 29986 ft | 480 kts | 305° |
| 2026-04-24 08:24 | 50.98297 | 9.15358 | 29986 ft | 480 kts | 305° |
| 2026-04-24 08:25 | 51.02138 | 9.06738 | 29986 ft | 480 kts | 305° |
| 2026-04-24 08:25 | 51.05961 | 8.98131 | 29986 ft | 480 kts | 305° |
| 2026-04-24 08:26 | 51.09811 | 8.89433 | 29986 ft | 479 kts | 305° |
| 2026-04-24 08:26 | 51.13590 | 8.80868 | 29985 ft | 479 kts | 305° |
| 2026-04-24 08:27 | 51.17709 | 8.72586 | 29986 ft | 480 kts | 309° |
| 2026-04-24 08:27 | 51.21936 | 8.64316 | 29985 ft | 479 kts | 309° |
| 2026-04-24 08:28 | 51.26117 | 8.56062 | 29985 ft | 479 kts | 309° |
| 2026-04-24 08:28 | 51.30281 | 8.47790 | 29985 ft | 479 kts | 309° |
| 2026-04-24 08:29 | 51.33972 | 8.39020 | 29990 ft | 479 kts | 299° |
| 2026-04-24 08:29 | 51.37096 | 8.29691 | 29986 ft | 479 kts | 298° |
| 2026-04-24 08:30 | 51.40234 | 8.20254 | 29986 ft | 479 kts | 298° |
| 2026-04-24 08:30 | 51.43338 | 8.10884 | 29986 ft | 479 kts | 298° |
| 2026-04-24 08:31 | 51.46449 | 8.01460 | 29986 ft | 479 kts | 298° |
| 2026-04-24 08:31 | 51.49557 | 7.92006 | 29986 ft | 479 kts | 298° |
| 2026-04-24 08:32 | 51.52655 | 7.82550 | 29986 ft | 479 kts | 298° |
| 2026-04-24 08:32 | 51.55757 | 7.73041 | 29986 ft | 479 kts | 298° |
| 2026-04-24 08:33 | 51.58836 | 7.63570 | 29987 ft | 479 kts | 298° |
| 2026-04-24 08:33 | 51.61899 | 7.54111 | 29987 ft | 479 kts | 298° |
| 2026-04-24 08:34 | 51.64970 | 7.44590 | 29987 ft | 479 kts | 298° |
| 2026-04-24 08:34 | 51.68039 | 7.35039 | 29987 ft | 479 kts | 298° |
| 2026-04-24 08:35 | 51.71051 | 7.25632 | 29987 ft | 479 kts | 297° |
| 2026-04-24 08:35 | 51.74091 | 7.16098 | 29987 ft | 479 kts | 297° |
| 2026-04-24 08:36 | 51.77111 | 7.06590 | 29987 ft | 479 kts | 297° |
| 2026-04-24 08:36 | 51.80127 | 6.97058 | 29987 ft | 479 kts | 297° |
| 2026-04-24 08:37 | 51.83139 | 6.87500 | 29987 ft | 479 kts | 297° |
| 2026-04-24 08:37 | 51.86131 | 6.77971 | 29987 ft | 479 kts | 297° |
| 2026-04-24 08:38 | 51.89136 | 6.68360 | 29987 ft | 479 kts | 297° |
| 2026-04-24 08:38 | 51.92090 | 6.58878 | 29987 ft | 479 kts | 297° |
| 2026-04-24 08:39 | 51.94989 | 6.49534 | 29987 ft | 479 kts | 297° |
| 2026-04-24 08:39 | 51.97927 | 6.40029 | 29987 ft | 479 kts | 297° |
| 2026-04-24 08:40 | 52.00775 | 6.30779 | 29987 ft | 479 kts | 296° |
| 2026-04-24 08:40 | 52.03722 | 6.21171 | 29987 ft | 479 kts | 296° |
| 2026-04-24 08:41 | 52.06603 | 6.11739 | 29987 ft | 479 kts | 296° |
| 2026-04-24 08:41 | 52.09519 | 6.02156 | 29987 ft | 479 kts | 296° |
| 2026-04-24 08:42 | 52.11828 | 5.94541 | 29987 ft | 479 kts | 296° |
| 2026-04-24 08:42 | 52.15060 | 5.83840 | 29987 ft | 479 kts | 296° |
| 2026-04-24 08:43 | 52.17980 | 5.74131 | 29987 ft | 479 kts | 296° |
| 2026-04-24 08:43 | 52.20905 | 5.64367 | 29987 ft | 479 kts | 296° |
| 2026-04-24 08:44 | 52.23807 | 5.54641 | 29987 ft | 479 kts | 296° |
| 2026-04-24 08:44 | 52.26709 | 5.44874 | 29987 ft | 479 kts | 296° |
| 2026-04-24 08:45 | 52.29610 | 5.35072 | 29987 ft | 479 kts | 296° |
| 2026-04-24 08:45 | 52.32441 | 5.25466 | 29987 ft | 479 kts | 295° |
| 2026-04-24 08:46 | 52.35199 | 5.16068 | 29987 ft | 479 kts | 295° |
| 2026-04-24 08:46 | 52.38027 | 5.06395 | 29987 ft | 479 kts | 295° |
| 2026-04-24 08:47 | 52.40886 | 4.96579 | 29987 ft | 479 kts | 295° |
| 2026-04-24 08:47 | 52.43749 | 4.86705 | 29987 ft | 479 kts | 295° |
| 2026-04-24 08:48 | 52.46575 | 4.76916 | 29987 ft | 479 kts | 295° |
| 2026-04-24 08:48 | 52.49392 | 4.67120 | 29987 ft | 479 kts | 295° |
| 2026-04-24 08:49 | 52.52212 | 4.57274 | 29987 ft | 479 kts | 295° |
| 2026-04-24 08:49 | 52.55038 | 4.47362 | 29987 ft | 479 kts | 295° |
| 2026-04-24 08:50 | 52.57843 | 4.37486 | 29987 ft | 479 kts | 295° |
| 2026-04-24 08:50 | 52.60632 | 4.27621 | 29987 ft | 479 kts | 295° |
| 2026-04-24 08:51 | 52.63399 | 4.17795 | 29987 ft | 479 kts | 295° |
| 2026-04-24 08:51 | 52.66162 | 4.07941 | 29987 ft | 479 kts | 295° |
| 2026-04-24 08:52 | 52.68947 | 3.97966 | 29987 ft | 479 kts | 295° |
| 2026-04-24 08:52 | 52.71717 | 3.88002 | 29987 ft | 479 kts | 295° |
| 2026-04-24 08:53 | 52.74461 | 3.78093 | 29987 ft | 479 kts | 295° |
| 2026-04-24 08:53 | 52.77203 | 3.68144 | 29987 ft | 479 kts | 295° |
| 2026-04-24 08:54 | 52.79955 | 3.58116 | 29987 ft | 479 kts | 295° |
| 2026-04-24 08:54 | 52.82688 | 3.48117 | 29987 ft | 479 kts | 295° |
| 2026-04-24 08:55 | 52.85335 | 3.38390 | 29987 ft | 479 kts | 295° |
| 2026-04-24 08:55 | 52.88046 | 3.28385 | 29987 ft | 479 kts | 294° |
| 2026-04-24 08:56 | 52.90753 | 3.18294 | 29981 ft | 479 kts | 291° |
| 2026-04-24 08:56 | 52.92540 | 3.07729 | 29987 ft | 480 kts | 283° |
| 2026-04-24 08:57 | 52.94008 | 2.96989 | 29987 ft | 479 kts | 282° |
| 2026-04-24 08:57 | 52.95430 | 2.86337 | 29987 ft | 479 kts | 282° |
| 2026-04-24 08:58 | 52.96836 | 2.75629 | 29987 ft | 479 kts | 282° |
| 2026-04-24 08:58 | 52.98233 | 2.64871 | 29987 ft | 479 kts | 282° |
| 2026-04-24 08:59 | 52.99622 | 2.54063 | 29987 ft | 479 kts | 282° |
| 2026-04-24 08:59 | 53.00999 | 2.43250 | 29987 ft | 479 kts | 282° |
| 2026-04-24 09:00 | 53.02350 | 2.32549 | 29987 ft | 479 kts | 281° |
| 2026-04-24 09:00 | 53.03704 | 2.21743 | 29987 ft | 479 kts | 281° |
| 2026-04-24 09:01 | 53.05048 | 2.10923 | 29987 ft | 479 kts | 281° |
| 2026-04-24 09:01 | 53.06377 | 2.00136 | 29987 ft | 479 kts | 281° |
| 2026-04-24 09:02 | 53.07701 | 1.89310 | 29987 ft | 479 kts | 281° |
| 2026-04-24 09:02 | 53.09013 | 1.78485 | 29987 ft | 479 kts | 281° |
| 2026-04-24 09:03 | 53.10308 | 1.67717 | 29987 ft | 479 kts | 281° |
| 2026-04-24 09:03 | 53.11588 | 1.56992 | 29987 ft | 479 kts | 281° |
| 2026-04-24 09:04 | 53.12857 | 1.46265 | 29987 ft | 479 kts | 281° |
| 2026-04-24 09:04 | 53.14124 | 1.35471 | 29987 ft | 479 kts | 281° |
| 2026-04-24 09:05 | 53.15378 | 1.24688 | 29987 ft | 479 kts | 281° |
| 2026-04-24 09:05 | 53.16630 | 1.13840 | 29987 ft | 479 kts | 281° |
| 2026-04-24 09:06 | 53.17849 | 1.03186 | 29987 ft | 479 kts | 281° |
| 2026-04-24 09:06 | 53.19089 | 0.92257 | 29987 ft | 479 kts | 281° |
| 2026-04-24 09:07 | 53.20303 | 0.81467 | 29987 ft | 479 kts | 281° |
| 2026-04-24 09:07 | 53.22118 | 0.65159 | 29987 ft | 479 kts | 281° |
| 2026-04-24 09:08 | 53.23317 | 0.54262 | 29987 ft | 479 kts | 281° |
| 2026-04-24 09:08 | 53.24504 | 0.43380 | 29987 ft | 479 kts | 281° |
| 2026-04-24 09:09 | 53.25687 | 0.32442 | 29987 ft | 479 kts | 280° |
| 2026-04-24 09:09 | 53.26859 | 0.21496 | 29987 ft | 479 kts | 280° |
| 2026-04-24 09:10 | 53.28012 | 0.10634 | 29987 ft | 479 kts | 280° |
| 2026-04-24 09:10 | 53.29159 | -0.00266 | 29987 ft | 479 kts | 280° |
| 2026-04-24 09:11 | 53.30300 | -0.11218 | 29987 ft | 479 kts | 280° |
| 2026-04-24 09:11 | 53.31425 | -0.22125 | 29986 ft | 479 kts | 280° |
| 2026-04-24 09:12 | 53.32547 | -0.33093 | 29986 ft | 479 kts | 280° |
| 2026-04-24 09:12 | 53.33654 | -0.44032 | 29986 ft | 479 kts | 280° |
| 2026-04-24 09:13 | 53.34745 | -0.54911 | 29987 ft | 479 kts | 280° |
| 2026-04-24 09:13 | 53.35840 | -0.65934 | 29986 ft | 479 kts | 279° |
| 2026-04-24 09:14 | 53.36918 | -0.76878 | 29986 ft | 479 kts | 279° |
| 2026-04-24 09:14 | 53.37993 | -0.87904 | 29986 ft | 479 kts | 279° |
| 2026-04-24 09:15 | 53.39050 | -0.98852 | 29986 ft | 479 kts | 279° |
| 2026-04-24 09:15 | 53.40107 | -1.09916 | 29986 ft | 479 kts | 279° |
| 2026-04-24 09:16 | 53.41122 | -1.20656 | 29986 ft | 479 kts | 279° |
| 2026-04-24 09:16 | 53.42150 | -1.31646 | 29986 ft | 479 kts | 279° |
| 2026-04-24 09:17 | 53.43164 | -1.42604 | 29986 ft | 479 kts | 279° |
| 2026-04-24 09:17 | 53.44173 | -1.53607 | 29986 ft | 479 kts | 279° |
| 2026-04-24 09:18 | 53.45171 | -1.64615 | 29986 ft | 479 kts | 279° |
| 2026-04-24 09:18 | 53.46157 | -1.75604 | 29985 ft | 479 kts | 278° |
| 2026-04-24 09:19 | 53.47137 | -1.86646 | 29985 ft | 479 kts | 278° |
| 2026-04-24 09:19 | 53.48100 | -1.97613 | 29985 ft | 479 kts | 278° |
| 2026-04-24 09:20 | 53.49220 | -2.10523 | 29986 ft | 479 kts | 278° |
| 2026-04-24 09:20 | 53.50003 | -2.19653 | 29986 ft | 479 kts | 278° |
| 2026-04-24 09:21 | 53.50943 | -2.30730 | 29986 ft | 479 kts | 278° |
| 2026-04-24 09:21 | 53.51867 | -2.41735 | 29986 ft | 479 kts | 278° |
| 2026-04-24 09:22 | 53.52786 | -2.52809 | 29987 ft | 479 kts | 278° |
| 2026-04-24 09:22 | 53.53692 | -2.63863 | 29987 ft | 479 kts | 278° |
| 2026-04-24 09:23 | 53.54588 | -2.74906 | 29986 ft | 478 kts | 277° |
| 2026-04-24 09:23 | 53.55466 | -2.85870 | 29987 ft | 478 kts | 277° |
| 2026-04-24 09:24 | 53.56345 | -2.96971 | 29987 ft | 478 kts | 277° |
| 2026-04-24 09:24 | 53.57206 | -3.07984 | 29987 ft | 478 kts | 277° |
| 2026-04-24 09:25 | 53.58060 | -3.19043 | 29987 ft | 478 kts | 277° |
| 2026-04-24 09:25 | 53.58905 | -3.30118 | 29987 ft | 478 kts | 277° |
| 2026-04-24 09:26 | 53.59735 | -3.41127 | 29987 ft | 478 kts | 277° |
| 2026-04-24 09:26 | 53.60560 | -3.52214 | 29987 ft | 478 kts | 277° |
| 2026-04-24 09:27 | 53.61373 | -3.63291 | 29987 ft | 478 kts | 277° |
| 2026-04-24 09:27 | 53.62004 | -3.74336 | 29985 ft | 478 kts | 274° |
| 2026-04-24 09:28 | 53.62436 | -3.85540 | 29987 ft | 478 kts | 274° |
| 2026-04-24 09:28 | 53.62866 | -3.96636 | 29987 ft | 478 kts | 274° |
| 2026-04-24 09:29 | 53.63300 | -4.07849 | 29987 ft | 478 kts | 274° |
| 2026-04-24 09:29 | 53.63722 | -4.18921 | 29987 ft | 478 kts | 274° |
| 2026-04-24 09:30 | 53.64209 | -4.31952 | 29987 ft | 478 kts | 274° |
| 2026-04-24 09:30 | 53.64550 | -4.41286 | 29987 ft | 478 kts | 274° |
| 2026-04-24 09:31 | 53.64948 | -4.52398 | 29987 ft | 478 kts | 274° |
| 2026-04-24 09:31 | 53.65334 | -4.63475 | 29987 ft | 478 kts | 274° |
| 2026-04-24 09:32 | 53.65713 | -4.74661 | 29987 ft | 478 kts | 273° |
| 2026-04-24 09:32 | 53.66082 | -4.85845 | 29987 ft | 478 kts | 273° |
| 2026-04-24 09:33 | 53.66433 | -4.96654 | 29987 ft | 478 kts | 273° |
| 2026-04-24 09:33 | 53.66792 | -5.08002 | 29987 ft | 478 kts | 273° |
| 2026-04-24 09:34 | 53.67134 | -5.19208 | 29987 ft | 478 kts | 273° |
| 2026-04-24 09:34 | 53.67455 | -5.30325 | 29987 ft | 478 kts | 273° |
| 2026-04-24 09:35 | 53.67768 | -5.41514 | 29987 ft | 478 kts | 273° |
| 2026-04-24 09:35 | 53.68552 | -5.52632 | 29985 ft | 478 kts | 285° |
| 2026-04-24 09:36 | 53.70533 | -5.63260 | 29987 ft | 478 kts | 288° |
| 2026-04-24 09:36 | 53.72581 | -5.73928 | 29987 ft | 478 kts | 288° |
| 2026-04-24 09:37 | 53.74603 | -5.84543 | 29987 ft | 478 kts | 288° |
| 2026-04-24 09:37 | 53.76629 | -5.95245 | 29987 ft | 478 kts | 288° |
| 2026-04-24 09:38 | 53.78642 | -6.05949 | 29987 ft | 478 kts | 288° |
| 2026-04-24 09:38 | 53.80629 | -6.16575 | 29987 ft | 478 kts | 288° |
| 2026-04-24 09:39 | 53.82626 | -6.27315 | 29987 ft | 478 kts | 288° |
| 2026-04-24 09:39 | 53.84606 | -6.38031 | 29987 ft | 478 kts | 288° |
| 2026-04-24 09:40 | 53.86567 | -6.48703 | 29987 ft | 478 kts | 288° |
| 2026-04-24 09:40 | 53.88533 | -6.59463 | 29987 ft | 478 kts | 288° |
| 2026-04-24 09:41 | 53.90477 | -6.70172 | 29987 ft | 478 kts | 287° |
| 2026-04-24 09:41 | 53.92411 | -6.80882 | 29987 ft | 478 kts | 287° |
| 2026-04-24 09:42 | 53.94340 | -6.91626 | 29986 ft | 478 kts | 287° |
| 2026-04-24 09:42 | 53.96270 | -7.02442 | 29986 ft | 478 kts | 287° |
| 2026-04-24 09:43 | 53.98184 | -7.13235 | 29986 ft | 478 kts | 287° |
| 2026-04-24 09:43 | 54.00074 | -7.23954 | 29986 ft | 478 kts | 287° |
| 2026-04-24 09:44 | 54.01974 | -7.34797 | 29986 ft | 478 kts | 287° |
| 2026-04-24 09:44 | 54.03857 | -7.45604 | 29986 ft | 478 kts | 287° |
| 2026-04-24 09:45 | 54.05721 | -7.56371 | 29986 ft | 478 kts | 287° |
| 2026-04-24 09:45 | 54.07582 | -7.67183 | 29986 ft | 478 kts | 286° |
| 2026-04-24 09:46 | 54.09425 | -7.77956 | 29986 ft | 478 kts | 286° |
| 2026-04-24 09:46 | 54.11276 | -7.88849 | 29986 ft | 478 kts | 286° |
| 2026-04-24 09:47 | 54.13110 | -7.99700 | 29986 ft | 478 kts | 286° |
| 2026-04-24 09:47 | 54.14925 | -8.10512 | 29986 ft | 478 kts | 286° |
| 2026-04-24 09:48 | 54.16741 | -8.21394 | 29986 ft | 478 kts | 286° |
| 2026-04-24 09:48 | 54.18539 | -8.32237 | 29987 ft | 478 kts | 286° |
| 2026-04-24 09:49 | 54.20333 | -8.43125 | 29987 ft | 478 kts | 286° |
| 2026-04-24 09:49 | 54.22112 | -8.53994 | 29987 ft | 478 kts | 286° |
| 2026-04-24 09:50 | 54.23880 | -8.64863 | 29987 ft | 478 kts | 286° |
| 2026-04-24 09:50 | 54.25650 | -8.75812 | 29987 ft | 478 kts | 285° |
| 2026-04-24 09:51 | 54.27406 | -8.86746 | 29987 ft | 478 kts | 285° |
| 2026-04-24 09:51 | 54.29140 | -8.97612 | 29987 ft | 478 kts | 285° |
| 2026-04-24 09:52 | 54.30878 | -9.08575 | 29987 ft | 478 kts | 285° |
| 2026-04-24 09:52 | 54.32600 | -9.19507 | 29987 ft | 478 kts | 285° |
| 2026-04-24 09:53 | 54.34312 | -9.30452 | 29987 ft | 478 kts | 285° |
| 2026-04-24 09:53 | 54.36019 | -9.41436 | 29987 ft | 478 kts | 285° |
| 2026-04-24 09:54 | 54.37712 | -9.52401 | 29986 ft | 478 kts | 285° |
| 2026-04-24 09:54 | 54.39400 | -9.63409 | 29987 ft | 478 kts | 285° |
| 2026-04-24 09:55 | 54.41075 | -9.74402 | 29987 ft | 478 kts | 284° |
| 2026-04-24 09:55 | 54.42733 | -9.85365 | 29987 ft | 478 kts | 284° |
| 2026-04-24 09:56 | 54.44389 | -9.96386 | 29987 ft | 478 kts | 284° |
| 2026-04-24 09:56 | 54.46037 | -10.07423 | 29986 ft | 478 kts | 285° |
| 2026-04-24 09:57 | 54.48593 | -10.17861 | 29986 ft | 478 kts | 301° |
| 2026-04-24 09:57 | 54.52029 | -10.27567 | 29987 ft | 478 kts | 301° |
| 2026-04-24 09:58 | 54.55453 | -10.37340 | 29987 ft | 478 kts | 301° |
| 2026-04-24 09:58 | 54.58831 | -10.47101 | 29987 ft | 478 kts | 301° |
| 2026-04-24 09:59 | 54.62212 | -10.56961 | 29987 ft | 478 kts | 301° |
| 2026-04-24 09:59 | 54.65566 | -10.66800 | 29987 ft | 478 kts | 300° |
| 2026-04-24 10:00 | 54.68905 | -10.76651 | 29987 ft | 478 kts | 300° |
| 2026-04-24 10:00 | 54.72253 | -10.86575 | 29987 ft | 478 kts | 300° |
| 2026-04-24 10:01 | 54.75571 | -10.96454 | 29987 ft | 478 kts | 300° |
| 2026-04-24 10:01 | 54.78879 | -11.06347 | 29987 ft | 478 kts | 300° |
| 2026-04-24 10:02 | 54.82187 | -11.16278 | 29987 ft | 478 kts | 300° |
| 2026-04-24 10:02 | 54.85495 | -11.26254 | 29987 ft | 478 kts | 300° |
| 2026-04-24 10:03 | 54.88792 | -11.36236 | 29987 ft | 478 kts | 300° |
| 2026-04-24 10:03 | 54.92079 | -11.46230 | 29987 ft | 478 kts | 300° |
| 2026-04-24 10:04 | 54.95353 | -11.56225 | 29987 ft | 477 kts | 300° |
| 2026-04-24 10:04 | 54.98612 | -11.66217 | 29987 ft | 477 kts | 299° |
| 2026-04-24 10:05 | 55.01880 | -11.76276 | 29987 ft | 477 kts | 299° |
| 2026-04-24 10:05 | 55.05122 | -11.86297 | 29987 ft | 477 kts | 299° |
| 2026-04-24 10:06 | 55.09989 | -12.01421 | 29987 ft | 477 kts | 299° |
| 2026-04-24 10:07 | 55.13212 | -12.11490 | 29987 ft | 477 kts | 299° |
| 2026-04-24 10:07 | 55.16435 | -12.21600 | 29987 ft | 477 kts | 299° |
| 2026-04-24 10:08 | 55.19635 | -12.31679 | 29987 ft | 477 kts | 299° |
| 2026-04-24 10:08 | 55.22855 | -12.41865 | 29987 ft | 477 kts | 299° |
| 2026-04-24 10:09 | 55.26053 | -12.52026 | 29987 ft | 477 kts | 299° |
| 2026-04-24 10:09 | 55.29219 | -12.62125 | 29987 ft | 477 kts | 299° |
| 2026-04-24 10:10 | 55.32410 | -12.72351 | 29987 ft | 477 kts | 298° |
| 2026-04-24 10:10 | 55.35575 | -12.82533 | 29987 ft | 477 kts | 298° |
| 2026-04-24 10:11 | 55.38736 | -12.92749 | 29987 ft | 477 kts | 298° |
| 2026-04-24 10:11 | 55.41879 | -13.02949 | 29987 ft | 477 kts | 298° |
| 2026-04-24 10:12 | 55.45013 | -13.13164 | 29987 ft | 477 kts | 298° |
| 2026-04-24 10:12 | 55.48146 | -13.23422 | 29987 ft | 477 kts | 298° |
| 2026-04-24 10:13 | 55.51266 | -13.33677 | 29987 ft | 477 kts | 298° |
| 2026-04-24 10:13 | 55.54401 | -13.44031 | 29987 ft | 477 kts | 298° |
| 2026-04-24 10:14 | 55.57487 | -13.54264 | 29987 ft | 477 kts | 298° |
| 2026-04-24 10:14 | 55.60602 | -13.64642 | 29987 ft | 477 kts | 298° |
| 2026-04-24 10:15 | 55.63687 | -13.74961 | 29987 ft | 477 kts | 297° |
| 2026-04-24 10:15 | 55.66758 | -13.85282 | 29987 ft | 477 kts | 297° |
| 2026-04-24 10:16 | 55.69833 | -13.95660 | 29987 ft | 477 kts | 297° |
| 2026-04-24 10:16 | 55.72894 | -14.06036 | 29987 ft | 477 kts | 297° |
| 2026-04-24 10:17 | 55.75948 | -14.16436 | 29987 ft | 477 kts | 297° |
| 2026-04-24 10:17 | 55.79008 | -14.26904 | 29987 ft | 477 kts | 297° |
| 2026-04-24 10:18 | 55.82032 | -14.37293 | 29987 ft | 477 kts | 297° |
| 2026-04-24 10:18 | 55.85089 | -14.47844 | 29987 ft | 477 kts | 297° |
| 2026-04-24 10:19 | 55.88095 | -14.58263 | 29987 ft | 477 kts | 297° |
| 2026-04-24 10:19 | 55.91103 | -14.68737 | 29987 ft | 477 kts | 297° |
| 2026-04-24 10:20 | 55.94117 | -14.79284 | 29987 ft | 477 kts | 297° |
| 2026-04-24 10:20 | 55.97104 | -14.89778 | 29987 ft | 477 kts | 297° |
| 2026-04-24 10:21 | 56.00012 | -15.00327 | 29984 ft | 477 kts | 293° |
| 2026-04-24 10:21 | 56.02534 | -15.11342 | 29987 ft | 477 kts | 292° |
| 2026-04-24 10:22 | 56.05004 | -15.22325 | 30135 ft | 486 kts | 292° |
| 2026-04-24 10:22 | 56.06256 | -15.27922 | 30690 ft | 484 kts | 292° |
| 2026-04-24 10:22 | 56.07495 | -15.33481 | 31410 ft | 478 kts | 292° |
| 2026-04-24 10:22 | 56.08714 | -15.38963 | 32011 ft | 475 kts | 292° |
| 2026-04-24 10:23 | 56.09925 | -15.44431 | 32455 ft | 474 kts | 292° |
| 2026-04-24 10:23 | 56.11144 | -15.49948 | 32842 ft | 474 kts | 292° |
| 2026-04-24 10:23 | 56.12360 | -15.55465 | 33234 ft | 474 kts | 292° |
| 2026-04-24 10:23 | 56.13580 | -15.61016 | 33639 ft | 473 kts | 292° |
| 2026-04-24 10:24 | 56.14781 | -15.66501 | 33957 ft | 474 kts | 291° |
| 2026-04-24 10:24 | 56.17180 | -15.77491 | 33986 ft | 473 kts | 291° |
| 2026-04-24 10:25 | 56.19564 | -15.88481 | 33987 ft | 472 kts | 291° |
| 2026-04-24 10:25 | 56.21926 | -15.99421 | 33987 ft | 472 kts | 291° |
| 2026-04-24 10:26 | 56.24282 | -16.10390 | 33987 ft | 472 kts | 291° |
| 2026-04-24 10:26 | 56.26625 | -16.21362 | 33987 ft | 472 kts | 291° |
| 2026-04-24 10:27 | 56.28971 | -16.32408 | 33987 ft | 472 kts | 291° |
| 2026-04-24 10:27 | 56.31288 | -16.43373 | 33987 ft | 472 kts | 291° |
| 2026-04-24 10:28 | 56.33609 | -16.54418 | 33987 ft | 472 kts | 291° |
| 2026-04-24 10:28 | 56.35902 | -16.65392 | 33987 ft | 472 kts | 290° |
| 2026-04-24 10:29 | 56.38207 | -16.76479 | 33987 ft | 472 kts | 290° |
| 2026-04-24 10:29 | 56.40494 | -16.87548 | 33987 ft | 472 kts | 290° |
| 2026-04-24 10:30 | 56.42762 | -16.98578 | 33987 ft | 472 kts | 290° |
| 2026-04-24 10:30 | 56.45036 | -17.09700 | 33987 ft | 472 kts | 290° |
| 2026-04-24 10:31 | 56.47286 | -17.20764 | 33987 ft | 472 kts | 290° |
| 2026-04-24 10:31 | 56.49534 | -17.31885 | 33987 ft | 472 kts | 290° |
| 2026-04-24 10:32 | 56.51759 | -17.42955 | 33987 ft | 472 kts | 290° |
| 2026-04-24 10:32 | 56.53997 | -17.54147 | 33987 ft | 472 kts | 290° |
| 2026-04-24 10:33 | 56.56205 | -17.65254 | 33987 ft | 472 kts | 289° |
| 2026-04-24 10:33 | 56.58419 | -17.76454 | 33987 ft | 472 kts | 289° |
| 2026-04-24 10:34 | 56.60609 | -17.87597 | 33987 ft | 472 kts | 289° |
| 2026-04-24 10:34 | 56.62789 | -17.98755 | 33987 ft | 472 kts | 289° |
| 2026-04-24 10:35 | 56.64968 | -18.09970 | 33987 ft | 472 kts | 289° |
| 2026-04-24 10:35 | 56.67132 | -18.21174 | 33987 ft | 472 kts | 289° |
| 2026-04-24 10:36 | 56.69286 | -18.32389 | 33987 ft | 472 kts | 289° |
| 2026-04-24 10:36 | 56.71440 | -18.43671 | 33987 ft | 472 kts | 289° |
| 2026-04-24 10:37 | 56.73566 | -18.54871 | 33987 ft | 472 kts | 289° |
| 2026-04-24 10:37 | 56.75693 | -18.66143 | 33987 ft | 472 kts | 289° |
| 2026-04-24 10:38 | 56.77811 | -18.77431 | 33987 ft | 472 kts | 289° |
| 2026-04-24 10:38 | 56.79918 | -18.88734 | 33987 ft | 472 kts | 289° |
| 2026-04-24 10:39 | 56.82006 | -19.00000 | 33987 ft | 472 kts | 289° |
| 2026-04-24 10:39 | 56.84090 | -19.11305 | 33987 ft | 472 kts | 289° |
| 2026-04-24 10:40 | 56.86173 | -19.22681 | 33987 ft | 472 kts | 289° |
| 2026-04-24 10:40 | 56.88232 | -19.33994 | 33987 ft | 472 kts | 289° |
| 2026-04-24 10:41 | 56.90283 | -19.45326 | 33987 ft | 472 kts | 289° |
| 2026-04-24 10:41 | 56.92324 | -19.56676 | 33987 ft | 472 kts | 289° |
| 2026-04-24 10:42 | 56.94353 | -19.68030 | 33987 ft | 472 kts | 288° |
| 2026-04-24 10:42 | 56.96379 | -19.79438 | 33987 ft | 472 kts | 288° |
| 2026-04-24 10:43 | 56.98392 | -19.90840 | 33987 ft | 472 kts | 288° |
| 2026-04-24 10:43 | 57.00313 | -20.02334 | 33989 ft | 472 kts | 285° |
| 2026-04-24 10:44 | 57.01973 | -20.13890 | 33987 ft | 472 kts | 285° |
| 2026-04-24 10:44 | 57.03628 | -20.25564 | 33987 ft | 472 kts | 284° |
| 2026-04-24 10:45 | 57.05252 | -20.37113 | 33987 ft | 472 kts | 284° |
| 2026-04-24 10:45 | 57.06878 | -20.48767 | 33987 ft | 472 kts | 284° |
| 2026-04-24 10:46 | 57.08492 | -20.60433 | 33987 ft | 472 kts | 284° |
| 2026-04-24 10:46 | 57.10094 | -20.72105 | 33987 ft | 472 kts | 284° |
| 2026-04-24 10:47 | 57.11680 | -20.83746 | 33987 ft | 472 kts | 284° |
| 2026-04-24 10:47 | 57.13258 | -20.95415 | 33987 ft | 472 kts | 284° |
| 2026-04-24 10:48 | 57.14819 | -21.07054 | 33987 ft | 472 kts | 284° |
| 2026-04-24 10:48 | 57.16379 | -21.18773 | 33987 ft | 472 kts | 284° |
| 2026-04-24 10:49 | 57.17927 | -21.30492 | 33987 ft | 472 kts | 284° |
| 2026-04-24 10:49 | 57.19464 | -21.42225 | 33987 ft | 472 kts | 284° |
| 2026-04-24 10:50 | 57.20983 | -21.53915 | 33987 ft | 472 kts | 284° |
| 2026-04-24 10:50 | 57.22499 | -21.65673 | 33987 ft | 472 kts | 283° |
| 2026-04-24 10:51 | 57.24001 | -21.77412 | 33987 ft | 472 kts | 283° |
| 2026-04-24 10:51 | 57.25483 | -21.89096 | 33987 ft | 472 kts | 283° |
| 2026-04-24 10:52 | 57.26969 | -22.00906 | 33987 ft | 472 kts | 283° |
| 2026-04-24 10:52 | 57.28435 | -22.12650 | 33987 ft | 472 kts | 283° |
| 2026-04-24 10:53 | 57.29899 | -22.24473 | 33987 ft | 472 kts | 283° |
| 2026-04-24 10:53 | 57.31339 | -22.36210 | 33987 ft | 472 kts | 283° |
| 2026-04-24 10:54 | 57.32771 | -22.47978 | 33987 ft | 472 kts | 283° |
| 2026-04-24 10:54 | 57.34199 | -22.59808 | 33987 ft | 472 kts | 283° |
| 2026-04-24 10:55 | 57.35617 | -22.71658 | 33987 ft | 472 kts | 282° |
| 2026-04-24 10:55 | 57.37011 | -22.83412 | 33987 ft | 472 kts | 282° |
| 2026-04-24 10:56 | 57.38409 | -22.95303 | 33987 ft | 472 kts | 282° |
| 2026-04-24 10:56 | 57.39790 | -23.07152 | 33987 ft | 472 kts | 282° |
| 2026-04-24 10:57 | 57.41159 | -23.18993 | 33987 ft | 472 kts | 282° |
| 2026-04-24 10:57 | 57.42516 | -23.30846 | 33987 ft | 472 kts | 282° |
| 2026-04-24 10:58 | 57.43857 | -23.42663 | 33987 ft | 472 kts | 282° |
| 2026-04-24 10:58 | 57.45195 | -23.54563 | 33987 ft | 472 kts | 282° |
| 2026-04-24 10:59 | 57.46518 | -23.66433 | 33987 ft | 472 kts | 281° |
| 2026-04-24 10:59 | 57.47830 | -23.78311 | 33987 ft | 472 kts | 281° |
| 2026-04-24 11:00 | 57.49139 | -23.90277 | 33987 ft | 472 kts | 281° |
| 2026-04-24 11:00 | 57.50426 | -24.02153 | 33987 ft | 472 kts | 281° |
| 2026-04-24 11:01 | 57.51706 | -24.14067 | 33987 ft | 472 kts | 281° |
| 2026-04-24 11:01 | 57.52978 | -24.26034 | 33987 ft | 472 kts | 281° |
| 2026-04-24 11:02 | 57.54236 | -24.37976 | 33987 ft | 472 kts | 281° |
| 2026-04-24 11:02 | 57.55483 | -24.49929 | 33987 ft | 472 kts | 281° |
| 2026-04-24 11:03 | 57.56717 | -24.61870 | 33987 ft | 472 kts | 281° |
| 2026-04-24 11:03 | 57.57935 | -24.73780 | 33987 ft | 472 kts | 280° |
| 2026-04-24 11:04 | 57.59146 | -24.85738 | 33987 ft | 472 kts | 280° |
| 2026-04-24 11:04 | 57.60350 | -24.97750 | 33987 ft | 472 kts | 280° |
| 2026-04-24 11:05 | 57.61537 | -25.09705 | 33987 ft | 472 kts | 280° |
| 2026-04-24 11:05 | 57.62721 | -25.21761 | 33987 ft | 472 kts | 280° |
| 2026-04-24 11:06 | 57.63885 | -25.33730 | 33987 ft | 472 kts | 280° |
| 2026-04-24 11:06 | 57.65038 | -25.45715 | 33987 ft | 472 kts | 280° |
| 2026-04-24 11:07 | 57.66756 | -25.63803 | 33987 ft | 472 kts | 280° |
| 2026-04-24 11:07 | 57.67876 | -25.75763 | 33987 ft | 472 kts | 279° |
| 2026-04-24 11:08 | 57.68991 | -25.87788 | 33987 ft | 472 kts | 279° |
| 2026-04-24 11:08 | 57.70102 | -25.99907 | 33987 ft | 472 kts | 279° |
| 2026-04-24 11:09 | 57.71193 | -26.11933 | 33987 ft | 472 kts | 279° |
| 2026-04-24 11:09 | 57.72271 | -26.23951 | 33987 ft | 472 kts | 279° |
| 2026-04-24 11:10 | 57.73345 | -26.36062 | 33987 ft | 472 kts | 279° |
| 2026-04-24 11:10 | 57.74399 | -26.48088 | 33987 ft | 472 kts | 279° |
| 2026-04-24 11:11 | 57.75446 | -26.60162 | 33987 ft | 472 kts | 279° |
| 2026-04-24 11:11 | 57.76485 | -26.72298 | 33987 ft | 472 kts | 279° |
| 2026-04-24 11:12 | 57.77511 | -26.84403 | 33987 ft | 472 kts | 279° |
| 2026-04-24 11:12 | 57.78522 | -26.96494 | 33987 ft | 472 kts | 279° |
| 2026-04-24 11:13 | 57.79517 | -27.08532 | 33987 ft | 472 kts | 279° |
| 2026-04-24 11:13 | 57.80513 | -27.20719 | 33987 ft | 472 kts | 279° |
| 2026-04-24 11:14 | 57.81491 | -27.32842 | 33987 ft | 472 kts | 279° |
| 2026-04-24 11:14 | 57.82452 | -27.44909 | 33987 ft | 472 kts | 279° |
| 2026-04-24 11:15 | 57.83410 | -27.57086 | 33987 ft | 472 kts | 279° |
| 2026-04-24 11:15 | 57.84351 | -27.69193 | 33987 ft | 472 kts | 278° |
| 2026-04-24 11:16 | 57.85280 | -27.81307 | 33987 ft | 472 kts | 278° |
| 2026-04-24 11:16 | 57.86203 | -27.93506 | 33987 ft | 472 kts | 278° |
| 2026-04-24 11:17 | 57.87111 | -28.05653 | 33987 ft | 472 kts | 278° |
| 2026-04-24 11:17 | 57.88005 | -28.17788 | 33987 ft | 472 kts | 278° |
| 2026-04-24 11:18 | 57.88895 | -28.30018 | 33987 ft | 472 kts | 278° |
| 2026-04-24 11:18 | 57.89765 | -28.42149 | 33987 ft | 472 kts | 278° |
| 2026-04-24 11:19 | 57.90627 | -28.54333 | 33987 ft | 472 kts | 278° |
| 2026-04-24 11:19 | 57.91476 | -28.66505 | 33987 ft | 472 kts | 277° |
| 2026-04-24 11:20 | 57.92319 | -28.78764 | 33987 ft | 472 kts | 277° |
| 2026-04-24 11:20 | 57.93143 | -28.90927 | 33987 ft | 472 kts | 277° |
| 2026-04-24 11:21 | 57.93955 | -29.03089 | 33987 ft | 472 kts | 277° |
| 2026-04-24 11:21 | 57.94762 | -29.15364 | 33987 ft | 472 kts | 277° |
| 2026-04-24 11:22 | 57.95552 | -29.27554 | 33987 ft | 472 kts | 277° |
| 2026-04-24 11:22 | 57.96333 | -29.39785 | 33987 ft | 472 kts | 277° |
| 2026-04-24 11:23 | 57.97102 | -29.52031 | 33987 ft | 472 kts | 277° |
| 2026-04-24 11:23 | 57.97856 | -29.64211 | 33987 ft | 472 kts | 277° |
| 2026-04-24 11:24 | 57.98603 | -29.76499 | 33987 ft | 472 kts | 276° |
| 2026-04-24 11:24 | 57.99333 | -29.88679 | 33987 ft | 472 kts | 276° |
| 2026-04-24 11:25 | 58.00002 | -30.00931 | 33988 ft | 472 kts | 275° |
| 2026-04-24 11:25 | 58.00499 | -30.13287 | 33987 ft | 472 kts | 274° |
| 2026-04-24 11:26 | 58.00969 | -30.25507 | 33987 ft | 472 kts | 274° |
| 2026-04-24 11:26 | 58.01427 | -30.37864 | 33987 ft | 472 kts | 274° |
| 2026-04-24 11:27 | 58.01870 | -30.50150 | 33987 ft | 472 kts | 274° |
| 2026-04-24 11:27 | 58.02298 | -30.62417 | 33987 ft | 472 kts | 274° |
| 2026-04-24 11:28 | 58.02715 | -30.74707 | 33987 ft | 472 kts | 273° |
| 2026-04-24 11:28 | 58.03122 | -30.87056 | 33987 ft | 472 kts | 273° |
| 2026-04-24 11:29 | 58.03503 | -30.98976 | 33987 ft | 472 kts | 273° |
| 2026-04-24 11:29 | 58.03884 | -31.11265 | 33987 ft | 472 kts | 273° |
| 2026-04-24 11:30 | 58.04255 | -31.23604 | 33987 ft | 472 kts | 273° |
| 2026-04-24 11:30 | 58.04613 | -31.35939 | 33987 ft | 472 kts | 273° |
| 2026-04-24 11:31 | 58.04959 | -31.48257 | 33987 ft | 472 kts | 273° |
| 2026-04-24 11:31 | 58.05292 | -31.60537 | 33987 ft | 472 kts | 273° |
| 2026-04-24 11:32 | 58.05613 | -31.72817 | 33987 ft | 472 kts | 272° |
| 2026-04-24 11:32 | 58.05925 | -31.85204 | 33987 ft | 472 kts | 272° |
| 2026-04-24 11:33 | 58.06224 | -31.97553 | 33987 ft | 472 kts | 272° |
| 2026-04-24 11:33 | 58.06510 | -32.09860 | 33987 ft | 472 kts | 272° |
| 2026-04-24 11:34 | 58.06785 | -32.22207 | 33987 ft | 472 kts | 272° |
| 2026-04-24 11:34 | 58.07047 | -32.34518 | 33987 ft | 472 kts | 272° |
| 2026-04-24 11:35 | 58.07298 | -32.46866 | 33987 ft | 472 kts | 272° |
| 2026-04-24 11:35 | 58.07537 | -32.59188 | 33987 ft | 472 kts | 272° |
| 2026-04-24 11:36 | 58.07764 | -32.71537 | 33987 ft | 472 kts | 271° |
| 2026-04-24 11:36 | 58.07978 | -32.83863 | 33987 ft | 472 kts | 271° |
| 2026-04-24 11:37 | 58.08181 | -32.96184 | 33987 ft | 472 kts | 271° |
| 2026-04-24 11:37 | 58.08373 | -33.08567 | 33987 ft | 472 kts | 271° |
| 2026-04-24 11:38 | 58.08552 | -33.20872 | 33987 ft | 472 kts | 271° |
| 2026-04-24 11:38 | 58.08719 | -33.33216 | 33987 ft | 472 kts | 271° |
| 2026-04-24 11:39 | 58.08875 | -33.45590 | 33987 ft | 472 kts | 271° |
| 2026-04-24 11:39 | 58.09018 | -33.57973 | 33987 ft | 472 kts | 271° |
| 2026-04-24 11:40 | 58.09149 | -33.70262 | 33987 ft | 472 kts | 271° |
| 2026-04-24 11:40 | 58.09269 | -33.82661 | 33987 ft | 472 kts | 271° |
| 2026-04-24 11:41 | 58.09376 | -33.94940 | 33987 ft | 472 kts | 271° |
| 2026-04-24 11:41 | 58.09472 | -34.07319 | 33987 ft | 472 kts | 271° |
| 2026-04-24 11:42 | 58.09556 | -34.19711 | 33987 ft | 472 kts | 271° |
| 2026-04-24 11:42 | 58.09627 | -34.32030 | 33987 ft | 472 kts | 271° |
| 2026-04-24 11:43 | 58.09687 | -34.44366 | 33987 ft | 472 kts | 271° |
| 2026-04-24 11:43 | 58.09735 | -34.56763 | 33987 ft | 472 kts | 271° |
| 2026-04-24 11:44 | 58.09771 | -34.69083 | 33987 ft | 472 kts | 270° |
| 2026-04-24 11:44 | 58.09795 | -34.81433 | 33987 ft | 472 kts | 270° |
| 2026-04-24 11:45 | 58.09807 | -34.93831 | 33987 ft | 472 kts | 270° |
| 2026-04-24 11:45 | 58.09807 | -35.06146 | 33987 ft | 472 kts | 270° |
| 2026-04-24 11:46 | 58.09795 | -35.18544 | 33987 ft | 472 kts | 270° |
| 2026-04-24 11:46 | 58.09771 | -35.30914 | 33987 ft | 472 kts | 270° |
| 2026-04-24 11:47 | 58.09735 | -35.43242 | 33987 ft | 472 kts | 270° |
| 2026-04-24 11:47 | 58.09687 | -35.55602 | 33987 ft | 472 kts | 270° |
| 2026-04-24 11:48 | 58.09627 | -35.67932 | 33987 ft | 472 kts | 269° |
| 2026-04-24 11:48 | 58.09555 | -35.80338 | 33987 ft | 472 kts | 269° |
| 2026-04-24 11:49 | 58.09472 | -35.92678 | 33987 ft | 472 kts | 269° |
| 2026-04-24 11:49 | 58.09376 | -36.05031 | 33987 ft | 472 kts | 269° |
| 2026-04-24 11:50 | 58.09269 | -36.17320 | 33987 ft | 472 kts | 269° |
| 2026-04-24 11:50 | 58.09149 | -36.29741 | 33987 ft | 472 kts | 269° |
| 2026-04-24 11:51 | 58.09018 | -36.42046 | 33987 ft | 472 kts | 269° |
| 2026-04-24 11:51 | 58.08875 | -36.54367 | 33987 ft | 472 kts | 269° |
| 2026-04-24 11:52 | 58.08720 | -36.66710 | 33987 ft | 472 kts | 268° |
| 2026-04-24 11:52 | 58.08552 | -36.79113 | 33987 ft | 472 kts | 268° |
| 2026-04-24 11:53 | 58.08374 | -36.91396 | 33987 ft | 472 kts | 268° |
| 2026-04-24 11:53 | 58.08182 | -37.03764 | 33987 ft | 472 kts | 268° |
| 2026-04-24 11:54 | 58.07979 | -37.16099 | 33987 ft | 472 kts | 268° |
| 2026-04-24 11:54 | 58.07763 | -37.28503 | 33987 ft | 472 kts | 268° |
| 2026-04-24 11:55 | 58.07536 | -37.40842 | 33987 ft | 472 kts | 268° |
| 2026-04-24 11:55 | 58.07297 | -37.53190 | 33987 ft | 472 kts | 268° |
| 2026-04-24 11:56 | 58.07048 | -37.65459 | 33987 ft | 472 kts | 267° |
| 2026-04-24 11:56 | 58.06785 | -37.77797 | 33987 ft | 472 kts | 267° |
| 2026-04-24 11:57 | 58.06510 | -37.90142 | 33987 ft | 472 kts | 267° |
| 2026-04-24 11:57 | 58.06222 | -38.02522 | 33987 ft | 472 kts | 267° |
| 2026-04-24 11:58 | 58.05925 | -38.14828 | 33987 ft | 472 kts | 267° |
| 2026-04-24 11:58 | 58.05615 | -38.27128 | 33987 ft | 472 kts | 267° |
| 2026-04-24 11:59 | 58.05291 | -38.39495 | 33987 ft | 472 kts | 267° |
| 2026-04-24 11:59 | 58.04958 | -38.51800 | 33987 ft | 472 kts | 267° |
| 2026-04-24 12:00 | 58.04611 | -38.64149 | 33987 ft | 472 kts | 267° |
| 2026-04-24 12:00 | 58.04254 | -38.76431 | 33987 ft | 472 kts | 266° |
| 2026-04-24 12:01 | 58.03883 | -38.88777 | 33987 ft | 472 kts | 266° |
| 2026-04-24 12:01 | 58.03501 | -39.01097 | 33987 ft | 472 kts | 266° |
| 2026-04-24 12:02 | 58.03109 | -39.13354 | 33987 ft | 472 kts | 266° |
| 2026-04-24 12:02 | 58.02704 | -39.25641 | 33987 ft | 472 kts | 266° |
| 2026-04-24 12:03 | 58.02285 | -39.38006 | 33987 ft | 472 kts | 266° |
| 2026-04-24 12:03 | 58.01856 | -39.50291 | 33987 ft | 472 kts | 266° |
| 2026-04-24 12:04 | 58.01415 | -39.62584 | 33987 ft | 472 kts | 266° |
| 2026-04-24 12:04 | 58.00964 | -39.74845 | 33987 ft | 472 kts | 266° |
| 2026-04-24 12:05 | 58.00499 | -39.87131 | 33987 ft | 472 kts | 266° |
| 2026-04-24 12:05 | 57.99992 | -39.99433 | 33987 ft | 472 kts | 264° |
| 2026-04-24 12:06 | 57.99291 | -40.11731 | 33987 ft | 472 kts | 264° |
| 2026-04-24 12:06 | 57.98568 | -40.23935 | 33987 ft | 472 kts | 264° |
| 2026-04-24 12:07 | 57.97828 | -40.36154 | 33987 ft | 472 kts | 264° |
| 2026-04-24 12:07 | 57.97070 | -40.48442 | 33987 ft | 472 kts | 264° |
| 2026-04-24 12:08 | 57.96305 | -40.60641 | 33987 ft | 472 kts | 264° |
| 2026-04-24 12:08 | 57.95525 | -40.72860 | 33987 ft | 472 kts | 263° |
| 2026-04-24 12:09 | 57.94732 | -40.85099 | 33987 ft | 472 kts | 263° |
| 2026-04-24 12:09 | 57.93933 | -40.97240 | 33987 ft | 472 kts | 263° |
| 2026-04-24 12:10 | 57.93116 | -41.09476 | 33987 ft | 472 kts | 263° |
| 2026-04-24 12:11 | 57.91871 | -41.27776 | 33987 ft | 472 kts | 263° |
| 2026-04-24 12:11 | 57.91028 | -41.39931 | 33987 ft | 472 kts | 263° |
| 2026-04-24 12:12 | 57.90171 | -41.52129 | 33987 ft | 472 kts | 263° |
| 2026-04-24 12:12 | 57.89304 | -41.64296 | 33987 ft | 472 kts | 263° |
| 2026-04-24 12:13 | 57.88423 | -41.76494 | 33987 ft | 472 kts | 262° |
| 2026-04-24 12:13 | 57.87532 | -41.88657 | 33987 ft | 472 kts | 262° |
| 2026-04-24 12:14 | 57.86628 | -42.00840 | 33987 ft | 472 kts | 262° |
| 2026-04-24 12:14 | 57.85718 | -42.12930 | 33987 ft | 472 kts | 262° |
| 2026-04-24 12:15 | 57.84788 | -42.25121 | 33987 ft | 472 kts | 262° |
| 2026-04-24 12:15 | 57.83849 | -42.37286 | 33987 ft | 472 kts | 262° |
| 2026-04-24 12:16 | 57.82903 | -42.49379 | 33987 ft | 472 kts | 262° |
| 2026-04-24 12:16 | 57.81944 | -42.61485 | 33987 ft | 472 kts | 262° |
| 2026-04-24 12:17 | 57.80967 | -42.73669 | 33987 ft | 472 kts | 261° |
| 2026-04-24 12:17 | 57.79989 | -42.85720 | 33987 ft | 472 kts | 261° |
| 2026-04-24 12:18 | 57.78993 | -42.97825 | 33987 ft | 472 kts | 261° |
| 2026-04-24 12:18 | 57.77980 | -43.09996 | 33987 ft | 472 kts | 261° |
| 2026-04-24 12:19 | 57.76969 | -43.22007 | 33987 ft | 472 kts | 261° |
| 2026-04-24 12:19 | 57.75936 | -43.34137 | 33987 ft | 472 kts | 261° |
| 2026-04-24 12:20 | 57.74892 | -43.46248 | 33987 ft | 472 kts | 261° |
| 2026-04-24 12:20 | 57.73844 | -43.58255 | 33987 ft | 472 kts | 261° |
| 2026-04-24 12:21 | 57.72776 | -43.70364 | 33987 ft | 472 kts | 260° |
| 2026-04-24 12:21 | 57.71698 | -43.82449 | 33987 ft | 472 kts | 260° |
| 2026-04-24 12:22 | 57.70614 | -43.94471 | 33987 ft | 472 kts | 260° |
| 2026-04-24 12:22 | 57.69516 | -44.06503 | 33987 ft | 472 kts | 260° |
| 2026-04-24 12:23 | 57.68403 | -44.18577 | 33987 ft | 472 kts | 260° |
| 2026-04-24 12:23 | 57.67285 | -44.30566 | 33987 ft | 472 kts | 260° |
| 2026-04-24 12:24 | 57.66149 | -44.42617 | 33987 ft | 472 kts | 260° |
| 2026-04-24 12:24 | 57.65009 | -44.54589 | 33987 ft | 472 kts | 260° |
| 2026-04-24 12:25 | 57.63851 | -44.66618 | 33987 ft | 472 kts | 259° |
| 2026-04-24 12:25 | 57.62679 | -44.78666 | 33987 ft | 472 kts | 259° |
| 2026-04-24 12:26 | 57.61499 | -44.90672 | 33987 ft | 472 kts | 259° |
| 2026-04-24 12:26 | 57.60315 | -45.02599 | 33987 ft | 472 kts | 259° |
| 2026-04-24 12:27 | 57.59114 | -45.14580 | 33987 ft | 472 kts | 259° |
| 2026-04-24 12:27 | 57.57900 | -45.26557 | 33987 ft | 472 kts | 259° |
| 2026-04-24 12:28 | 57.56679 | -45.38490 | 33987 ft | 472 kts | 259° |
| 2026-04-24 12:28 | 57.55442 | -45.50462 | 33987 ft | 472 kts | 259° |
| 2026-04-24 12:29 | 57.54194 | -45.62424 | 33987 ft | 472 kts | 259° |
| 2026-04-24 12:29 | 57.52942 | -45.74305 | 33987 ft | 472 kts | 258° |
| 2026-04-24 12:30 | 57.51668 | -45.86285 | 33987 ft | 472 kts | 258° |
| 2026-04-24 12:30 | 57.50388 | -45.98203 | 33987 ft | 472 kts | 258° |
| 2026-04-24 12:31 | 57.49099 | -46.10088 | 33987 ft | 472 kts | 258° |
| 2026-04-24 12:31 | 57.47794 | -46.22016 | 33987 ft | 472 kts | 258° |
| 2026-04-24 12:32 | 57.46480 | -46.33914 | 33987 ft | 472 kts | 258° |
| 2026-04-24 12:32 | 57.45158 | -46.45768 | 33987 ft | 472 kts | 258° |
| 2026-04-24 12:33 | 57.43819 | -46.57671 | 33987 ft | 472 kts | 258° |
| 2026-04-24 12:33 | 57.42477 | -46.69490 | 33987 ft | 472 kts | 258° |
| 2026-04-24 12:34 | 57.41118 | -46.81356 | 33987 ft | 472 kts | 258° |
| 2026-04-24 12:34 | 57.39744 | -46.93248 | 33987 ft | 472 kts | 258° |
| 2026-04-24 12:35 | 57.38360 | -47.05117 | 33987 ft | 472 kts | 258° |
| 2026-04-24 12:35 | 57.36974 | -47.16902 | 33987 ft | 472 kts | 258° |
| 2026-04-24 12:36 | 57.35564 | -47.28782 | 33987 ft | 472 kts | 258° |
| 2026-04-24 12:36 | 57.34157 | -47.40538 | 33987 ft | 472 kts | 258° |
| 2026-04-24 12:37 | 57.32727 | -47.52384 | 33987 ft | 472 kts | 258° |
| 2026-04-24 12:37 | 57.31292 | -47.64171 | 33987 ft | 472 kts | 258° |
| 2026-04-24 12:38 | 57.29850 | -47.75916 | 33987 ft | 472 kts | 257° |
| 2026-04-24 12:38 | 57.28383 | -47.87767 | 33987 ft | 472 kts | 257° |
| 2026-04-24 12:39 | 57.25441 | -48.11238 | 33987 ft | 472 kts | 257° |
| 2026-04-24 12:40 | 57.23945 | -48.23025 | 33987 ft | 472 kts | 257° |
| 2026-04-24 12:40 | 57.22443 | -48.34771 | 33987 ft | 472 kts | 257° |
| 2026-04-24 12:41 | 57.20931 | -48.46491 | 33987 ft | 472 kts | 257° |
| 2026-04-24 12:41 | 57.19403 | -48.58238 | 33987 ft | 472 kts | 257° |
| 2026-04-24 12:42 | 57.17873 | -48.69916 | 33987 ft | 472 kts | 256° |
| 2026-04-24 12:42 | 57.16330 | -48.81594 | 33987 ft | 472 kts | 256° |
| 2026-04-24 12:43 | 57.14775 | -48.93279 | 33987 ft | 472 kts | 256° |
| 2026-04-24 12:43 | 57.13197 | -49.05040 | 33987 ft | 472 kts | 256° |
| 2026-04-24 12:44 | 57.11627 | -49.16646 | 33987 ft | 472 kts | 256° |
| 2026-04-24 12:44 | 57.10035 | -49.28332 | 33987 ft | 472 kts | 256° |
| 2026-04-24 12:45 | 57.08437 | -49.39970 | 33987 ft | 472 kts | 256° |
| 2026-04-24 12:45 | 57.06816 | -49.51681 | 33987 ft | 472 kts | 256° |
| 2026-04-24 12:46 | 57.05200 | -49.63273 | 33987 ft | 472 kts | 256° |
| 2026-04-24 12:46 | 57.03569 | -49.74887 | 33987 ft | 472 kts | 255° |
| 2026-04-24 12:47 | 57.01919 | -49.86547 | 33987 ft | 472 kts | 255° |
| 2026-04-24 12:47 | 57.00171 | -49.98058 | 33985 ft | 472 kts | 249° |
| 2026-04-24 12:48 | 56.97678 | -50.09126 | 33988 ft | 472 kts | 247° |
| 2026-04-24 12:48 | 56.95076 | -50.20163 | 33987 ft | 472 kts | 246° |
| 2026-04-24 12:49 | 56.92464 | -50.31069 | 33987 ft | 472 kts | 246° |
| 2026-04-24 12:49 | 56.89805 | -50.42049 | 33987 ft | 472 kts | 246° |
| 2026-04-24 12:50 | 56.87149 | -50.52925 | 33987 ft | 472 kts | 246° |
| 2026-04-24 12:50 | 56.84456 | -50.63885 | 33987 ft | 472 kts | 246° |
| 2026-04-24 12:51 | 56.81768 | -50.74762 | 33987 ft | 472 kts | 245° |
| 2026-04-24 12:51 | 56.79069 | -50.85617 | 33987 ft | 472 kts | 245° |
| 2026-04-24 12:52 | 56.76368 | -50.96433 | 33987 ft | 472 kts | 245° |
| 2026-04-24 12:52 | 56.73645 | -51.07277 | 33987 ft | 472 kts | 245° |
| 2026-04-24 12:53 | 56.70918 | -51.18088 | 33987 ft | 472 kts | 245° |
| 2026-04-24 12:53 | 56.68169 | -51.28928 | 33987 ft | 472 kts | 245° |
| 2026-04-24 12:54 | 56.65437 | -51.39654 | 33987 ft | 472 kts | 245° |
| 2026-04-24 12:54 | 56.62671 | -51.50455 | 33987 ft | 472 kts | 245° |
| 2026-04-24 12:55 | 56.59911 | -51.61183 | 33987 ft | 472 kts | 245° |
| 2026-04-24 12:55 | 56.57123 | -51.71967 | 33987 ft | 472 kts | 244° |
| 2026-04-24 12:56 | 56.54343 | -51.82670 | 33987 ft | 472 kts | 244° |
| 2026-04-24 12:56 | 56.51555 | -51.93355 | 33987 ft | 472 kts | 244° |
| 2026-04-24 12:57 | 56.48745 | -52.04068 | 33987 ft | 472 kts | 244° |
| 2026-04-24 12:57 | 56.45936 | -52.14730 | 33987 ft | 472 kts | 244° |
| 2026-04-24 12:58 | 56.43111 | -52.25400 | 33987 ft | 472 kts | 244° |
| 2026-04-24 12:58 | 56.40281 | -52.36041 | 33987 ft | 472 kts | 244° |
| 2026-04-24 12:59 | 56.37445 | -52.46653 | 33987 ft | 472 kts | 244° |
| 2026-04-24 12:59 | 56.34600 | -52.57248 | 33987 ft | 472 kts | 244° |
| 2026-04-24 13:00 | 56.31728 | -52.67896 | 33987 ft | 472 kts | 244° |
| 2026-04-24 13:00 | 56.28859 | -52.78483 | 33987 ft | 472 kts | 244° |
| 2026-04-24 13:01 | 56.25987 | -52.89029 | 33987 ft | 472 kts | 244° |
| 2026-04-24 13:01 | 56.23107 | -52.99559 | 33987 ft | 472 kts | 244° |
| 2026-04-24 13:02 | 56.20208 | -53.10108 | 33987 ft | 472 kts | 244° |
| 2026-04-24 13:02 | 56.17302 | -53.20636 | 33987 ft | 472 kts | 244° |
| 2026-04-24 13:03 | 56.14398 | -53.31107 | 33987 ft | 472 kts | 244° |
| 2026-04-24 13:03 | 56.11478 | -53.41587 | 33987 ft | 472 kts | 244° |
| 2026-04-24 13:04 | 56.08531 | -53.52118 | 33987 ft | 472 kts | 244° |
| 2026-04-24 13:04 | 56.05591 | -53.62576 | 33987 ft | 472 kts | 244° |
| 2026-04-24 13:05 | 56.02649 | -53.72994 | 33987 ft | 472 kts | 243° |
| 2026-04-24 13:05 | 55.99696 | -53.83400 | 33987 ft | 472 kts | 243° |
| 2026-04-24 13:06 | 55.96738 | -53.93782 | 33987 ft | 472 kts | 243° |
| 2026-04-24 13:06 | 55.93767 | -54.04161 | 33987 ft | 472 kts | 243° |
| 2026-04-24 13:07 | 55.90782 | -54.14542 | 33987 ft | 472 kts | 243° |
| 2026-04-24 13:07 | 55.87775 | -54.24953 | 33987 ft | 472 kts | 243° |
| 2026-04-24 13:08 | 55.84787 | -54.35255 | 33987 ft | 472 kts | 243° |
| 2026-04-24 13:08 | 55.81770 | -54.45608 | 33987 ft | 472 kts | 243° |
| 2026-04-24 13:09 | 55.77239 | -54.61071 | 33987 ft | 472 kts | 243° |
| 2026-04-24 13:09 | 55.74205 | -54.71371 | 33987 ft | 472 kts | 242° |
| 2026-04-24 13:10 | 55.71172 | -54.81618 | 33987 ft | 472 kts | 242° |
| 2026-04-24 13:10 | 55.68122 | -54.91882 | 33987 ft | 472 kts | 242° |
| 2026-04-24 13:11 | 55.65066 | -55.02118 | 33987 ft | 472 kts | 242° |
| 2026-04-24 13:11 | 55.62003 | -55.12335 | 33987 ft | 472 kts | 242° |
| 2026-04-24 13:12 | 55.58946 | -55.22489 | 33987 ft | 472 kts | 242° |
| 2026-04-24 13:12 | 55.55851 | -55.32723 | 33987 ft | 472 kts | 242° |
| 2026-04-24 13:13 | 55.52756 | -55.42914 | 33987 ft | 472 kts | 242° |
| 2026-04-24 13:13 | 55.49674 | -55.53017 | 33987 ft | 472 kts | 242° |
| 2026-04-24 13:14 | 55.46570 | -55.63150 | 33987 ft | 472 kts | 242° |
| 2026-04-24 13:14 | 55.43437 | -55.73335 | 33987 ft | 472 kts | 241° |
| 2026-04-24 13:15 | 55.40325 | -55.83408 | 33987 ft | 472 kts | 241° |
| 2026-04-24 13:15 | 55.37190 | -55.93512 | 33987 ft | 472 kts | 241° |
| 2026-04-24 13:16 | 55.34041 | -56.03618 | 33987 ft | 472 kts | 241° |
| 2026-04-24 13:16 | 55.30906 | -56.13640 | 33987 ft | 472 kts | 241° |
| 2026-04-24 13:17 | 55.27748 | -56.23687 | 33987 ft | 472 kts | 241° |
| 2026-04-24 13:17 | 55.24587 | -56.33708 | 33987 ft | 472 kts | 241° |
| 2026-04-24 13:18 | 55.21399 | -56.43766 | 33987 ft | 472 kts | 241° |
| 2026-04-24 13:18 | 55.18235 | -56.53711 | 33987 ft | 472 kts | 241° |
| 2026-04-24 13:19 | 55.15030 | -56.63742 | 33987 ft | 472 kts | 241° |
| 2026-04-24 13:19 | 55.11845 | -56.73669 | 33987 ft | 472 kts | 240° |
| 2026-04-24 13:20 | 55.08627 | -56.83658 | 33987 ft | 472 kts | 240° |
| 2026-04-24 13:20 | 55.05429 | -56.93544 | 33987 ft | 472 kts | 240° |
| 2026-04-24 13:21 | 55.02512 | -57.03743 | 33982 ft | 472 kts | 251° |
| 2026-04-24 13:21 | 55.00755 | -57.14687 | 33988 ft | 472 kts | 255° |
| 2026-04-24 13:22 | 54.99017 | -57.25697 | 33988 ft | 472 kts | 255° |
| 2026-04-24 13:22 | 54.97237 | -57.36666 | 33988 ft | 472 kts | 254° |
| 2026-04-24 13:23 | 54.95437 | -57.47562 | 33988 ft | 472 kts | 254° |
| 2026-04-24 13:23 | 54.93602 | -57.58534 | 33987 ft | 472 kts | 254° |
| 2026-04-24 13:24 | 54.91760 | -57.69447 | 33988 ft | 472 kts | 253° |
| 2026-04-24 13:24 | 54.89908 | -57.80338 | 33988 ft | 472 kts | 253° |
| 2026-04-24 13:25 | 54.88042 | -57.91227 | 33987 ft | 472 kts | 253° |
| 2026-04-24 13:25 | 54.86166 | -58.02105 | 33987 ft | 472 kts | 253° |
| 2026-04-24 13:26 | 54.84283 | -58.12958 | 33987 ft | 472 kts | 253° |
| 2026-04-24 13:26 | 54.82391 | -58.23795 | 33987 ft | 472 kts | 253° |
| 2026-04-24 13:27 | 54.80486 | -58.34635 | 33987 ft | 472 kts | 253° |
| 2026-04-24 13:27 | 54.78563 | -58.45517 | 33987 ft | 472 kts | 253° |
| 2026-04-24 13:28 | 54.76639 | -58.56340 | 33986 ft | 472 kts | 253° |
| 2026-04-24 13:28 | 54.74716 | -58.67090 | 33987 ft | 472 kts | 252° |
| 2026-04-24 13:29 | 54.72765 | -58.77938 | 33987 ft | 472 kts | 252° |
| 2026-04-24 13:29 | 54.70808 | -58.88747 | 33987 ft | 472 kts | 252° |
| 2026-04-24 13:30 | 54.68842 | -58.99546 | 33987 ft | 472 kts | 252° |
| 2026-04-24 13:30 | 54.66879 | -59.10267 | 33987 ft | 472 kts | 252° |
| 2026-04-24 13:31 | 54.64899 | -59.21021 | 33987 ft | 472 kts | 252° |
| 2026-04-24 13:31 | 54.62909 | -59.31764 | 33987 ft | 472 kts | 252° |
| 2026-04-24 13:32 | 54.60896 | -59.42567 | 33986 ft | 472 kts | 252° |
| 2026-04-24 13:32 | 54.58888 | -59.53282 | 33986 ft | 472 kts | 252° |
| 2026-04-24 13:33 | 54.56871 | -59.63986 | 33986 ft | 472 kts | 252° |
| 2026-04-24 13:33 | 54.54833 | -59.74736 | 33986 ft | 472 kts | 251° |
| 2026-04-24 13:34 | 54.52802 | -59.85396 | 33986 ft | 472 kts | 251° |
| 2026-04-24 13:34 | 54.50757 | -59.96063 | 33986 ft | 472 kts | 251° |
| 2026-04-24 13:35 | 54.49203 | -60.07003 | 33989 ft | 472 kts | 260° |
| 2026-04-24 13:35 | 54.48066 | -60.18089 | 33986 ft | 472 kts | 260° |
| 2026-04-24 13:36 | 54.46906 | -60.29171 | 33986 ft | 472 kts | 260° |
| 2026-04-24 13:36 | 54.45735 | -60.40187 | 33986 ft | 472 kts | 260° |
| 2026-04-24 13:37 | 54.44545 | -60.51243 | 33987 ft | 472 kts | 260° |
| 2026-04-24 13:37 | 54.43341 | -60.62302 | 33987 ft | 472 kts | 260° |
| 2026-04-24 13:38 | 54.42131 | -60.73307 | 33986 ft | 472 kts | 259° |
| 2026-04-24 13:38 | 54.40905 | -60.84349 | 33986 ft | 472 kts | 259° |
| 2026-04-24 13:39 | 54.39671 | -60.95368 | 33987 ft | 472 kts | 259° |
| 2026-04-24 13:39 | 54.38428 | -61.06367 | 33987 ft | 472 kts | 259° |
| 2026-04-24 13:40 | 54.37175 | -61.17362 | 33986 ft | 472 kts | 259° |
| 2026-04-24 13:40 | 54.35904 | -61.28416 | 33986 ft | 472 kts | 259° |
| 2026-04-24 13:41 | 54.34632 | -61.39388 | 33986 ft | 472 kts | 259° |
| 2026-04-24 13:41 | 54.33346 | -61.50387 | 33986 ft | 472 kts | 259° |
| 2026-04-24 13:42 | 54.32052 | -61.61367 | 33986 ft | 472 kts | 259° |
| 2026-04-24 13:42 | 54.30753 | -61.72286 | 33986 ft | 472 kts | 258° |
| 2026-04-24 13:43 | 54.29433 | -61.83298 | 33986 ft | 472 kts | 258° |
| 2026-04-24 13:43 | 54.28116 | -61.94194 | 33986 ft | 472 kts | 258° |
| 2026-04-24 13:44 | 54.26776 | -62.05191 | 33986 ft | 472 kts | 258° |
| 2026-04-24 13:44 | 54.25430 | -62.16150 | 33986 ft | 472 kts | 258° |
| 2026-04-24 13:45 | 54.24079 | -62.27065 | 33986 ft | 472 kts | 258° |
| 2026-04-24 13:45 | 54.22713 | -62.38013 | 33986 ft | 472 kts | 258° |
| 2026-04-24 13:46 | 54.21341 | -62.48918 | 33986 ft | 472 kts | 258° |
| 2026-04-24 13:46 | 54.19957 | -62.59833 | 33986 ft | 472 kts | 258° |
| 2026-04-24 13:47 | 54.18563 | -62.70749 | 33986 ft | 472 kts | 257° |
| 2026-04-24 13:47 | 54.17157 | -62.81663 | 33986 ft | 472 kts | 257° |
| 2026-04-24 13:48 | 54.15741 | -62.92580 | 33986 ft | 472 kts | 257° |
| 2026-04-24 13:48 | 54.14314 | -63.03493 | 33986 ft | 472 kts | 257° |
| 2026-04-24 13:49 | 54.12887 | -63.14326 | 33986 ft | 472 kts | 257° |
| 2026-04-24 13:49 | 54.11440 | -63.25229 | 33986 ft | 472 kts | 257° |
| 2026-04-24 13:50 | 54.09989 | -63.36077 | 33986 ft | 472 kts | 257° |
| 2026-04-24 13:50 | 54.08524 | -63.46954 | 33986 ft | 472 kts | 257° |
| 2026-04-24 13:51 | 54.07057 | -63.57763 | 33985 ft | 472 kts | 257° |
| 2026-04-24 13:51 | 54.05578 | -63.68582 | 33986 ft | 472 kts | 256° |
| 2026-04-24 13:52 | 54.04079 | -63.79465 | 33986 ft | 472 kts | 256° |
| 2026-04-24 13:52 | 54.02582 | -63.90261 | 33985 ft | 472 kts | 256° |
| 2026-04-24 13:53 | 54.01071 | -64.01080 | 33985 ft | 472 kts | 256° |
| 2026-04-24 13:53 | 53.99544 | -64.11933 | 33985 ft | 472 kts | 256° |
| 2026-04-24 13:54 | 53.98013 | -64.22735 | 33985 ft | 472 kts | 256° |
| 2026-04-24 13:54 | 53.96471 | -64.33540 | 33985 ft | 472 kts | 256° |
| 2026-04-24 13:55 | 53.94921 | -64.44327 | 33985 ft | 472 kts | 256° |
| 2026-04-24 13:55 | 53.93368 | -64.55057 | 33985 ft | 472 kts | 256° |
| 2026-04-24 13:56 | 53.91793 | -64.65865 | 33985 ft | 472 kts | 256° |
| 2026-04-24 13:56 | 53.90220 | -64.76588 | 33986 ft | 472 kts | 256° |
| 2026-04-24 13:57 | 53.88631 | -64.87344 | 33985 ft | 472 kts | 256° |
| 2026-04-24 13:57 | 53.87026 | -64.98140 | 33985 ft | 472 kts | 256° |
| 2026-04-24 13:58 | 53.85419 | -65.08870 | 33985 ft | 472 kts | 256° |
| 2026-04-24 13:58 | 53.83810 | -65.19543 | 33985 ft | 472 kts | 256° |
| 2026-04-24 13:59 | 53.82177 | -65.30304 | 33985 ft | 472 kts | 256° |
| 2026-04-24 13:59 | 53.80541 | -65.41019 | 33985 ft | 472 kts | 256° |
| 2026-04-24 14:00 | 53.78893 | -65.51730 | 33985 ft | 472 kts | 256° |
| 2026-04-24 14:00 | 53.77235 | -65.62447 | 33985 ft | 472 kts | 256° |
| 2026-04-24 14:01 | 53.75571 | -65.73124 | 33985 ft | 472 kts | 255° |
| 2026-04-24 14:01 | 53.73901 | -65.83774 | 33985 ft | 472 kts | 255° |
| 2026-04-24 14:02 | 53.72213 | -65.94467 | 33985 ft | 472 kts | 255° |
| 2026-04-24 14:02 | 53.70520 | -66.05126 | 33985 ft | 472 kts | 255° |
| 2026-04-24 14:03 | 53.68821 | -66.15754 | 33985 ft | 472 kts | 255° |
| 2026-04-24 14:03 | 53.67206 | -66.25795 | 33985 ft | 472 kts | 255° |
| 2026-04-24 14:04 | 53.65482 | -66.36451 | 33985 ft | 472 kts | 255° |
| 2026-04-24 14:04 | 53.63750 | -66.47083 | 33985 ft | 472 kts | 255° |
| 2026-04-24 14:05 | 53.62017 | -66.57661 | 33985 ft | 472 kts | 255° |
| 2026-04-24 14:05 | 53.60262 | -66.68306 | 33985 ft | 472 kts | 254° |
| 2026-04-24 14:06 | 53.58509 | -66.78870 | 33985 ft | 472 kts | 254° |
| 2026-04-24 14:06 | 53.56741 | -66.89462 | 33985 ft | 472 kts | 254° |
| 2026-04-24 14:07 | 53.54959 | -67.00070 | 33985 ft | 472 kts | 254° |
| 2026-04-24 14:07 | 53.53181 | -67.10596 | 33985 ft | 472 kts | 254° |
| 2026-04-24 14:08 | 53.51378 | -67.21203 | 33985 ft | 472 kts | 254° |
| 2026-04-24 14:08 | 53.49578 | -67.31724 | 33985 ft | 472 kts | 254° |
| 2026-04-24 14:09 | 53.47758 | -67.42304 | 33985 ft | 472 kts | 254° |
| 2026-04-24 14:09 | 53.45931 | -67.52859 | 33985 ft | 472 kts | 254° |
| 2026-04-24 14:10 | 53.44105 | -67.63342 | 33985 ft | 472 kts | 254° |
| 2026-04-24 14:10 | 53.42260 | -67.73882 | 33985 ft | 472 kts | 253° |
| 2026-04-24 14:11 | 53.40420 | -67.84319 | 33985 ft | 472 kts | 253° |
| 2026-04-24 14:12 | 53.37627 | -68.00064 | 33985 ft | 472 kts | 253° |
| 2026-04-24 14:12 | 53.35749 | -68.10566 | 33985 ft | 472 kts | 253° |
| 2026-04-24 14:13 | 53.33873 | -68.21005 | 33985 ft | 472 kts | 253° |
| 2026-04-24 14:13 | 53.31980 | -68.31471 | 33985 ft | 472 kts | 253° |
| 2026-04-24 14:14 | 53.30080 | -68.41918 | 33985 ft | 472 kts | 253° |
| 2026-04-24 14:14 | 53.27218 | -68.57548 | 33985 ft | 472 kts | 253° |
| 2026-04-24 14:15 | 53.25285 | -68.68025 | 33985 ft | 472 kts | 252° |
| 2026-04-24 14:15 | 53.23347 | -68.78475 | 33985 ft | 472 kts | 252° |
| 2026-04-24 14:16 | 53.21401 | -68.88910 | 33985 ft | 472 kts | 252° |
| 2026-04-24 14:17 | 53.18471 | -69.04508 | 33985 ft | 472 kts | 252° |
| 2026-04-24 14:17 | 53.15528 | -69.20045 | 33985 ft | 472 kts | 252° |
| 2026-04-24 14:18 | 53.13542 | -69.30460 | 33985 ft | 472 kts | 252° |
| 2026-04-24 14:18 | 53.11561 | -69.40792 | 33985 ft | 472 kts | 252° |
| 2026-04-24 14:19 | 53.09566 | -69.51143 | 33985 ft | 472 kts | 252° |
| 2026-04-24 14:19 | 53.07558 | -69.61500 | 33985 ft | 472 kts | 252° |
| 2026-04-24 14:20 | 53.05552 | -69.71792 | 33985 ft | 472 kts | 252° |
| 2026-04-24 14:20 | 53.03526 | -69.82134 | 33985 ft | 472 kts | 252° |
| 2026-04-24 14:21 | 53.01500 | -69.92421 | 33985 ft | 472 kts | 252° |
| 2026-04-24 14:21 | 52.99476 | -70.02780 | 33978 ft | 471 kts | 255° |
| 2026-04-24 14:22 | 52.97916 | -70.13264 | 33985 ft | 472 kts | 256° |
| 2026-04-24 14:23 | 52.95569 | -70.29035 | 33985 ft | 472 kts | 256° |
| 2026-04-24 14:23 | 52.93957 | -70.39636 | 33985 ft | 472 kts | 256° |
| 2026-04-24 14:24 | 52.92338 | -70.50178 | 33985 ft | 472 kts | 256° |
| 2026-04-24 14:24 | 52.90712 | -70.60667 | 33985 ft | 472 kts | 256° |
| 2026-04-24 14:25 | 52.89081 | -70.71114 | 33985 ft | 472 kts | 255° |
| 2026-04-24 14:25 | 52.87438 | -70.81558 | 33985 ft | 472 kts | 255° |
| 2026-04-24 14:26 | 52.85778 | -70.92043 | 33985 ft | 472 kts | 255° |
| 2026-04-24 14:26 | 52.84114 | -71.02482 | 33985 ft | 472 kts | 255° |
| 2026-04-24 14:27 | 52.82446 | -71.12884 | 33985 ft | 472 kts | 255° |
| 2026-04-24 14:27 | 52.80757 | -71.23350 | 33985 ft | 472 kts | 255° |
| 2026-04-24 14:28 | 52.79063 | -71.33783 | 33985 ft | 472 kts | 255° |
| 2026-04-24 14:28 | 52.77370 | -71.44147 | 33985 ft | 472 kts | 255° |
| 2026-04-24 14:29 | 52.75657 | -71.54566 | 33985 ft | 472 kts | 255° |
| 2026-04-24 14:29 | 52.73930 | -71.65007 | 33985 ft | 472 kts | 254° |
| 2026-04-24 14:30 | 52.72495 | -71.73634 | 33985 ft | 472 kts | 254° |
| 2026-04-24 14:30 | 52.70467 | -71.85758 | 33985 ft | 472 kts | 254° |
| 2026-04-24 14:31 | 52.68715 | -71.96156 | 33985 ft | 472 kts | 254° |
| 2026-04-24 14:31 | 52.66946 | -72.06599 | 33985 ft | 472 kts | 254° |
| 2026-04-24 14:32 | 52.65180 | -72.16959 | 33985 ft | 472 kts | 254° |
| 2026-04-24 14:32 | 52.63407 | -72.27303 | 33985 ft | 472 kts | 254° |
| 2026-04-24 14:33 | 52.61618 | -72.37676 | 33985 ft | 472 kts | 254° |
| 2026-04-24 14:33 | 52.59830 | -72.47983 | 33985 ft | 472 kts | 254° |
| 2026-04-24 14:34 | 52.58031 | -72.58293 | 33985 ft | 472 kts | 254° |
| 2026-04-24 14:34 | 52.56213 | -72.68651 | 33985 ft | 472 kts | 253° |
| 2026-04-24 14:35 | 52.54395 | -72.78947 | 33985 ft | 472 kts | 253° |
| 2026-04-24 14:35 | 52.52569 | -72.89236 | 33985 ft | 472 kts | 253° |
| 2026-04-24 14:36 | 52.50734 | -72.99514 | 33985 ft | 472 kts | 253° |
| 2026-04-24 14:36 | 52.48884 | -73.09815 | 33985 ft | 472 kts | 253° |
| 2026-04-24 14:37 | 52.47031 | -73.20077 | 33985 ft | 472 kts | 253° |
| 2026-04-24 14:37 | 52.45202 | -73.30145 | 33985 ft | 472 kts | 253° |
| 2026-04-24 14:38 | 52.43334 | -73.40377 | 33985 ft | 472 kts | 253° |
| 2026-04-24 14:38 | 52.41454 | -73.50613 | 33985 ft | 472 kts | 253° |
| 2026-04-24 14:39 | 52.39547 | -73.60941 | 33985 ft | 472 kts | 253° |
| 2026-04-24 14:39 | 52.37648 | -73.71172 | 33985 ft | 472 kts | 253° |
| 2026-04-24 14:40 | 52.35731 | -73.81438 | 33986 ft | 472 kts | 253° |
| 2026-04-24 14:40 | 52.33817 | -73.91633 | 33986 ft | 472 kts | 253° |
| 2026-04-24 14:41 | 52.31890 | -74.01845 | 33986 ft | 472 kts | 253° |
| 2026-04-24 14:41 | 52.29962 | -74.12004 | 33986 ft | 472 kts | 253° |
| 2026-04-24 14:42 | 52.28023 | -74.22164 | 33986 ft | 472 kts | 253° |
| 2026-04-24 14:42 | 52.26066 | -74.32367 | 33986 ft | 472 kts | 253° |
| 2026-04-24 14:43 | 52.24100 | -74.42561 | 33986 ft | 472 kts | 253° |
| 2026-04-24 14:43 | 52.22131 | -74.52716 | 33986 ft | 472 kts | 253° |
| 2026-04-24 14:44 | 52.20152 | -74.62871 | 33986 ft | 472 kts | 253° |
| 2026-04-24 14:44 | 52.18164 | -74.73013 | 33986 ft | 472 kts | 252° |
| 2026-04-24 14:45 | 52.16181 | -74.83080 | 33986 ft | 472 kts | 252° |
| 2026-04-24 14:45 | 52.14171 | -74.93234 | 33986 ft | 472 kts | 252° |
| 2026-04-24 14:46 | 52.12158 | -75.03344 | 33986 ft | 472 kts | 252° |
| 2026-04-24 14:46 | 52.10119 | -75.13536 | 33986 ft | 472 kts | 252° |
| 2026-04-24 14:47 | 52.08095 | -75.23599 | 33986 ft | 472 kts | 252° |
| 2026-04-24 14:47 | 52.06056 | -75.33684 | 33986 ft | 472 kts | 252° |
| 2026-04-24 14:48 | 52.04005 | -75.43776 | 33986 ft | 472 kts | 252° |
| 2026-04-24 14:48 | 52.01955 | -75.53812 | 33986 ft | 472 kts | 252° |
| 2026-04-24 14:49 | 51.99894 | -75.63856 | 33986 ft | 472 kts | 252° |
| 2026-04-24 14:49 | 51.97823 | -75.73891 | 33986 ft | 472 kts | 251° |
| 2026-04-24 14:50 | 51.95733 | -75.83970 | 33986 ft | 472 kts | 251° |
| 2026-04-24 14:50 | 51.93643 | -75.93998 | 33986 ft | 471 kts | 251° |
| 2026-04-24 14:51 | 51.91550 | -76.03992 | 33986 ft | 471 kts | 251° |
| 2026-04-24 14:51 | 51.89439 | -76.14019 | 33986 ft | 471 kts | 251° |
| 2026-04-24 14:52 | 51.87329 | -76.23994 | 33986 ft | 471 kts | 251° |
| 2026-04-24 14:52 | 51.85210 | -76.33961 | 33986 ft | 471 kts | 251° |
| 2026-04-24 14:53 | 51.83084 | -76.43913 | 33986 ft | 471 kts | 251° |
| 2026-04-24 14:53 | 51.80936 | -76.53916 | 33986 ft | 471 kts | 251° |
| 2026-04-24 14:54 | 51.78793 | -76.63854 | 33986 ft | 471 kts | 251° |
| 2026-04-24 14:54 | 51.76622 | -76.73865 | 33986 ft | 471 kts | 250° |
| 2026-04-24 14:55 | 51.74833 | -76.82083 | 33986 ft | 471 kts | 250° |
| 2026-04-24 14:55 | 51.72292 | -76.93693 | 33986 ft | 471 kts | 250° |
| 2026-04-24 14:56 | 51.70107 | -77.03629 | 33986 ft | 471 kts | 250° |
| 2026-04-24 14:56 | 51.67920 | -77.13525 | 33986 ft | 471 kts | 250° |
| 2026-04-24 14:57 | 51.65723 | -77.23419 | 33986 ft | 471 kts | 250° |
| 2026-04-24 14:57 | 51.63522 | -77.33283 | 33986 ft | 471 kts | 250° |
| 2026-04-24 14:58 | 51.61311 | -77.43146 | 33986 ft | 471 kts | 250° |
| 2026-04-24 14:58 | 51.59086 | -77.53027 | 33986 ft | 471 kts | 250° |
| 2026-04-24 14:59 | 51.56864 | -77.62843 | 33986 ft | 471 kts | 250° |
| 2026-04-24 14:59 | 51.54616 | -77.72731 | 33986 ft | 471 kts | 250° |
| 2026-04-24 15:00 | 51.52370 | -77.82568 | 33986 ft | 471 kts | 250° |
| 2026-04-24 15:00 | 51.50112 | -77.92406 | 33987 ft | 471 kts | 250° |
| 2026-04-24 15:01 | 51.47858 | -78.02183 | 33987 ft | 471 kts | 250° |
| 2026-04-24 15:01 | 51.45579 | -78.12025 | 33987 ft | 471 kts | 250° |
| 2026-04-24 15:02 | 51.43309 | -78.21780 | 33987 ft | 471 kts | 250° |
| 2026-04-24 15:02 | 51.41008 | -78.31624 | 33987 ft | 471 kts | 250° |
| 2026-04-24 15:03 | 51.38712 | -78.41405 | 33987 ft | 471 kts | 250° |
| 2026-04-24 15:03 | 51.36418 | -78.51129 | 33987 ft | 471 kts | 250° |
| 2026-04-24 15:04 | 51.34103 | -78.60902 | 33987 ft | 471 kts | 250° |
| 2026-04-24 15:04 | 51.31777 | -78.70676 | 33987 ft | 471 kts | 249° |
| 2026-04-24 15:05 | 51.29457 | -78.80377 | 33987 ft | 471 kts | 249° |
| 2026-04-24 15:05 | 51.27116 | -78.90125 | 33987 ft | 471 kts | 249° |
| 2026-04-24 15:06 | 51.24779 | -78.99814 | 33987 ft | 471 kts | 249° |
| 2026-04-24 15:06 | 51.22414 | -79.09574 | 33987 ft | 471 kts | 249° |
| 2026-04-24 15:07 | 51.20067 | -79.19218 | 33987 ft | 471 kts | 249° |
| 2026-04-24 15:07 | 51.17685 | -79.28966 | 33987 ft | 471 kts | 249° |
| 2026-04-24 15:08 | 51.15310 | -79.38639 | 33987 ft | 471 kts | 249° |
| 2026-04-24 15:08 | 51.12938 | -79.48257 | 33987 ft | 471 kts | 249° |
| 2026-04-24 15:09 | 51.10543 | -79.57923 | 33987 ft | 471 kts | 249° |
| 2026-04-24 15:09 | 51.08135 | -79.67605 | 33987 ft | 471 kts | 248° |
| 2026-04-24 15:10 | 51.05723 | -79.77258 | 33987 ft | 471 kts | 248° |
| 2026-04-24 15:10 | 51.03315 | -79.86853 | 33987 ft | 471 kts | 248° |
| 2026-04-24 15:11 | 51.00883 | -79.96504 | 33987 ft | 471 kts | 248° |
| 2026-04-24 15:11 | 50.98647 | -80.06214 | 33990 ft | 471 kts | 253° |
| 2026-04-24 15:12 | 50.96748 | -80.16158 | 33987 ft | 471 kts | 253° |
| 2026-04-24 15:12 | 50.93861 | -80.30959 | 33987 ft | 471 kts | 253° |
| 2026-04-24 15:13 | 50.91905 | -80.40833 | 33987 ft | 471 kts | 253° |
| 2026-04-24 15:13 | 50.89939 | -80.50677 | 33987 ft | 471 kts | 253° |
| 2026-04-24 15:14 | 50.87952 | -80.60560 | 33986 ft | 471 kts | 253° |
| 2026-04-24 15:14 | 50.85965 | -80.70383 | 33986 ft | 471 kts | 252° |
| 2026-04-24 15:15 | 50.83970 | -80.80190 | 33986 ft | 471 kts | 252° |
| 2026-04-24 15:15 | 50.81970 | -80.89971 | 33986 ft | 471 kts | 252° |
| 2026-04-24 15:16 | 50.79951 | -80.99794 | 33986 ft | 471 kts | 252° |
| 2026-04-24 15:16 | 50.77928 | -81.09591 | 33986 ft | 471 kts | 252° |
| 2026-04-24 15:17 | 50.75890 | -81.19411 | 33987 ft | 471 kts | 252° |
| 2026-04-24 15:17 | 50.73851 | -81.29189 | 33987 ft | 471 kts | 252° |
| 2026-04-24 15:18 | 50.71798 | -81.38982 | 33987 ft | 471 kts | 252° |
| 2026-04-24 15:18 | 50.69738 | -81.48761 | 33987 ft | 471 kts | 252° |
| 2026-04-24 15:19 | 50.67680 | -81.58487 | 33987 ft | 471 kts | 252° |
| 2026-04-24 15:19 | 50.65611 | -81.68214 | 33987 ft | 471 kts | 251° |
| 2026-04-24 15:20 | 50.63519 | -81.78006 | 33987 ft | 471 kts | 251° |
| 2026-04-24 15:20 | 50.61436 | -81.87704 | 33987 ft | 471 kts | 251° |
| 2026-04-24 15:21 | 50.59343 | -81.97409 | 33987 ft | 471 kts | 251° |
| 2026-04-24 15:21 | 50.57224 | -82.07183 | 33987 ft | 471 kts | 251° |
| 2026-04-24 15:22 | 50.55112 | -82.16879 | 33987 ft | 471 kts | 251° |
| 2026-04-24 15:23 | 50.51929 | -82.31412 | 33987 ft | 471 kts | 251° |
| 2026-04-24 15:23 | 50.48733 | -82.45896 | 33987 ft | 471 kts | 251° |
| 2026-04-24 15:25 | 50.43707 | -82.68477 | 33986 ft | 471 kts | 250° |
| 2026-04-24 15:26 | 50.37918 | -82.94185 | 33986 ft | 471 kts | 250° |
| 2026-04-24 15:27 | 50.31328 | -83.23078 | 33986 ft | 471 kts | 250° |
| 2026-04-24 15:29 | 50.24681 | -83.51826 | 33986 ft | 471 kts | 250° |
| 2026-04-24 15:31 | 50.16827 | -83.85310 | 33986 ft | 471 kts | 250° |
| 2026-04-24 15:33 | 50.07746 | -84.23383 | 33986 ft | 471 kts | 250° |
| 2026-04-24 15:34 | 50.02005 | -84.47118 | 33986 ft | 471 kts | 250° |
| 2026-04-24 15:35 | 49.96203 | -84.70847 | 33986 ft | 470 kts | 249° |
| 2026-04-24 15:36 | 49.93881 | -84.80272 | 33986 ft | 470 kts | 249° |
| 2026-04-24 15:36 | 49.90367 | -84.94460 | 33986 ft | 470 kts | 249° |
| 2026-04-24 15:37 | 49.88026 | -85.03862 | 33986 ft | 470 kts | 249° |
| 2026-04-24 15:37 | 49.85675 | -85.13264 | 33986 ft | 470 kts | 249° |
| 2026-04-24 15:38 | 49.83303 | -85.22712 | 33986 ft | 470 kts | 249° |
| 2026-04-24 15:38 | 49.80933 | -85.32113 | 33986 ft | 470 kts | 249° |
| 2026-04-24 15:39 | 49.78550 | -85.41523 | 33986 ft | 470 kts | 249° |
| 2026-04-24 15:39 | 49.76170 | -85.50884 | 33986 ft | 470 kts | 249° |
| 2026-04-24 15:40 | 49.73782 | -85.60237 | 33986 ft | 470 kts | 249° |
| 2026-04-24 15:40 | 49.71386 | -85.69584 | 33986 ft | 470 kts | 248° |
| 2026-04-24 15:41 | 49.68972 | -85.78957 | 33986 ft | 470 kts | 248° |
| 2026-04-24 15:41 | 49.66553 | -85.88317 | 33986 ft | 470 kts | 248° |
| 2026-04-24 15:42 | 49.64127 | -85.97663 | 33986 ft | 470 kts | 248° |
| 2026-04-24 15:42 | 49.61710 | -86.06937 | 33986 ft | 470 kts | 248° |
| 2026-04-24 15:43 | 49.59262 | -86.16292 | 33986 ft | 470 kts | 248° |
| 2026-04-24 15:43 | 49.56818 | -86.25592 | 33986 ft | 470 kts | 248° |
| 2026-04-24 15:44 | 49.54368 | -86.34881 | 33986 ft | 470 kts | 248° |
| 2026-04-24 15:44 | 49.51905 | -86.44179 | 33986 ft | 470 kts | 248° |
| 2026-04-24 15:45 | 49.49447 | -86.53419 | 33986 ft | 470 kts | 248° |
| 2026-04-24 15:45 | 49.46970 | -86.62696 | 33986 ft | 470 kts | 248° |
| 2026-04-24 15:46 | 49.44470 | -86.72021 | 33986 ft | 470 kts | 247° |
| 2026-04-24 15:46 | 49.41980 | -86.81271 | 33986 ft | 470 kts | 247° |
| 2026-04-24 15:47 | 49.39490 | -86.90486 | 33986 ft | 470 kts | 247° |
| 2026-04-24 15:47 | 49.36986 | -86.99715 | 33985 ft | 470 kts | 247° |
| 2026-04-24 15:48 | 49.34480 | -87.08918 | 33985 ft | 470 kts | 247° |
| 2026-04-24 15:48 | 49.31951 | -87.18166 | 33985 ft | 470 kts | 247° |
| 2026-04-24 15:49 | 49.29431 | -87.27342 | 33985 ft | 470 kts | 247° |
| 2026-04-24 15:49 | 49.26888 | -87.36573 | 33985 ft | 470 kts | 247° |
| 2026-04-24 15:50 | 49.24350 | -87.45744 | 33985 ft | 470 kts | 247° |
| 2026-04-24 15:50 | 49.21806 | -87.54902 | 33985 ft | 470 kts | 247° |
| 2026-04-24 15:51 | 49.19246 | -87.64084 | 33985 ft | 470 kts | 247° |
| 2026-04-24 15:51 | 49.16680 | -87.73252 | 33985 ft | 470 kts | 246° |
| 2026-04-24 15:52 | 49.14122 | -87.82353 | 33985 ft | 470 kts | 246° |
| 2026-04-24 15:52 | 49.11544 | -87.91496 | 33985 ft | 470 kts | 246° |
| 2026-04-24 15:53 | 49.08958 | -88.00625 | 33985 ft | 470 kts | 246° |
| 2026-04-24 15:53 | 49.06363 | -88.09757 | 33986 ft | 470 kts | 246° |
| 2026-04-24 15:54 | 49.03766 | -88.18857 | 33986 ft | 470 kts | 246° |
| 2026-04-24 15:54 | 49.01164 | -88.27943 | 33986 ft | 470 kts | 246° |
| 2026-04-24 15:55 | 48.98547 | -88.37043 | 33986 ft | 470 kts | 246° |
| 2026-04-24 15:55 | 48.95914 | -88.46166 | 33986 ft | 470 kts | 246° |
| 2026-04-24 15:56 | 48.93301 | -88.55187 | 33986 ft | 470 kts | 246° |
| 2026-04-24 15:56 | 48.90655 | -88.64290 | 33986 ft | 470 kts | 246° |
| 2026-04-24 15:57 | 48.88005 | -88.73367 | 33986 ft | 470 kts | 246° |
| 2026-04-24 15:57 | 48.85365 | -88.82380 | 33985 ft | 470 kts | 246° |
| 2026-04-24 15:58 | 48.82713 | -88.91401 | 33985 ft | 470 kts | 246° |
| 2026-04-24 15:58 | 48.80047 | -89.00432 | 33985 ft | 470 kts | 246° |
| 2026-04-24 15:59 | 48.77377 | -89.09444 | 33985 ft | 470 kts | 246° |
| 2026-04-24 15:59 | 48.74706 | -89.18430 | 33985 ft | 470 kts | 246° |
| 2026-04-24 16:00 | 48.72017 | -89.27439 | 33985 ft | 470 kts | 246° |
| 2026-04-24 16:00 | 48.69316 | -89.36455 | 33985 ft | 470 kts | 246° |
| 2026-04-24 16:01 | 48.66618 | -89.45430 | 33985 ft | 470 kts | 246° |
| 2026-04-24 16:01 | 48.63906 | -89.54421 | 33985 ft | 470 kts | 246° |
| 2026-04-24 16:02 | 48.61204 | -89.63341 | 33985 ft | 470 kts | 246° |
| 2026-04-24 16:02 | 48.58476 | -89.72319 | 33985 ft | 470 kts | 245° |
| 2026-04-24 16:03 | 48.55756 | -89.81234 | 33985 ft | 470 kts | 245° |
| 2026-04-24 16:03 | 48.53022 | -89.90166 | 33985 ft | 470 kts | 245° |
| 2026-04-24 16:04 | 48.50261 | -89.99062 | 33984 ft | 470 kts | 243° |
| 2026-04-24 16:04 | 48.47253 | -90.07827 | 33985 ft | 470 kts | 242° |
| 2026-04-24 16:05 | 48.42732 | -90.20817 | 33985 ft | 470 kts | 242° |
| 2026-04-24 16:06 | 48.38152 | -90.33884 | 33985 ft | 470 kts | 242° |
| 2026-04-24 16:07 | 48.33580 | -90.46851 | 33985 ft | 470 kts | 242° |
| 2026-04-24 16:07 | 48.29010 | -90.59748 | 33985 ft | 470 kts | 242° |
| 2026-04-24 16:08 | 48.24403 | -90.72682 | 33985 ft | 470 kts | 242° |
| 2026-04-24 16:09 | 48.19770 | -90.85625 | 33985 ft | 470 kts | 242° |
| 2026-04-24 16:09 | 48.16690 | -90.94192 | 33985 ft | 470 kts | 242° |
| 2026-04-24 16:11 | 48.08934 | -91.15644 | 33985 ft | 470 kts | 242° |
| 2026-04-24 16:11 | 48.05837 | -91.24162 | 33985 ft | 470 kts | 242° |
| 2026-04-24 16:12 | 48.01165 | -91.36961 | 33985 ft | 470 kts | 242° |
| 2026-04-24 16:13 | 47.96466 | -91.49771 | 33985 ft | 470 kts | 242° |
| 2026-04-24 16:14 | 47.90183 | -91.66800 | 33985 ft | 470 kts | 241° |
| 2026-04-24 16:14 | 47.85452 | -91.79552 | 33985 ft | 470 kts | 241° |
| 2026-04-24 16:15 | 47.80724 | -91.92236 | 33985 ft | 470 kts | 241° |
| 2026-04-24 16:16 | 47.75963 | -92.04946 | 33985 ft | 470 kts | 241° |
| 2026-04-24 16:17 | 47.68021 | -92.26015 | 33985 ft | 470 kts | 241° |
| 2026-04-24 16:18 | 47.61634 | -92.42838 | 33985 ft | 470 kts | 241° |
| 2026-04-24 16:19 | 47.56823 | -92.55442 | 33985 ft | 470 kts | 241° |
| 2026-04-24 16:20 | 47.51996 | -92.68027 | 33985 ft | 470 kts | 240° |
| 2026-04-24 16:20 | 47.47176 | -92.80535 | 33985 ft | 469 kts | 240° |
| 2026-04-24 16:21 | 47.42323 | -92.93072 | 33985 ft | 469 kts | 240° |
| 2026-04-24 16:22 | 47.39083 | -93.01408 | 33985 ft | 469 kts | 240° |
| 2026-04-24 16:22 | 47.34224 | -93.13864 | 33985 ft | 469 kts | 240° |
| 2026-04-24 16:23 | 47.30960 | -93.22196 | 33985 ft | 469 kts | 240° |
| 2026-04-24 16:24 | 47.26083 | -93.34602 | 33985 ft | 469 kts | 240° |
| 2026-04-24 16:24 | 47.22822 | -93.42865 | 33985 ft | 469 kts | 240° |
| 2026-04-24 16:25 | 47.19553 | -93.51124 | 33985 ft | 469 kts | 240° |
| 2026-04-24 16:25 | 47.16282 | -93.59361 | 33985 ft | 469 kts | 240° |
| 2026-04-24 16:26 | 47.11330 | -93.71786 | 33985 ft | 469 kts | 239° |
| 2026-04-24 16:27 | 47.06394 | -93.84113 | 33985 ft | 469 kts | 239° |
| 2026-04-24 16:27 | 47.03100 | -93.92309 | 33985 ft | 469 kts | 239° |
| 2026-04-24 16:28 | 46.99751 | -94.00509 | 33986 ft | 469 kts | 237° |
| 2026-04-24 16:28 | 46.94399 | -94.12457 | 33985 ft | 469 kts | 237° |
| 2026-04-24 16:29 | 46.90830 | -94.20366 | 33985 ft | 469 kts | 237° |
| 2026-04-24 16:30 | 46.83631 | -94.36254 | 33985 ft | 469 kts | 237° |
| 2026-04-24 16:30 | 46.80024 | -94.44179 | 33985 ft | 469 kts | 237° |
| 2026-04-24 16:31 | 46.76427 | -94.52060 | 33985 ft | 469 kts | 237° |
| 2026-04-24 16:31 | 46.72817 | -94.59946 | 33985 ft | 469 kts | 237° |
| 2026-04-24 16:32 | 46.69193 | -94.67841 | 33985 ft | 469 kts | 236° |
| 2026-04-24 16:32 | 46.65571 | -94.75710 | 33985 ft | 469 kts | 236° |
| 2026-04-24 16:33 | 46.61948 | -94.83559 | 33985 ft | 469 kts | 236° |
| 2026-04-24 16:33 | 46.58316 | -94.91405 | 33985 ft | 469 kts | 236° |
| 2026-04-24 16:34 | 46.54676 | -94.99246 | 33985 ft | 469 kts | 236° |
| 2026-04-24 16:34 | 46.51030 | -95.07078 | 33985 ft | 469 kts | 236° |
| 2026-04-24 16:35 | 46.47378 | -95.14899 | 33985 ft | 469 kts | 236° |
| 2026-04-24 16:35 | 46.43745 | -95.22661 | 33985 ft | 469 kts | 236° |
| 2026-04-24 16:36 | 46.40076 | -95.30475 | 33985 ft | 469 kts | 236° |
| 2026-04-24 16:36 | 46.36435 | -95.38211 | 33985 ft | 469 kts | 236° |
| 2026-04-24 16:37 | 46.32745 | -95.46027 | 33985 ft | 469 kts | 236° |
| 2026-04-24 16:37 | 46.29081 | -95.53767 | 33985 ft | 469 kts | 236° |
| 2026-04-24 16:38 | 46.25422 | -95.61475 | 33985 ft | 469 kts | 236° |
| 2026-04-24 16:38 | 46.21721 | -95.69248 | 33985 ft | 469 kts | 235° |
| 2026-04-24 16:39 | 46.18036 | -95.76969 | 33985 ft | 469 kts | 235° |
| 2026-04-24 16:39 | 46.14352 | -95.84666 | 33986 ft | 469 kts | 235° |
| 2026-04-24 16:40 | 46.10646 | -95.92387 | 33986 ft | 469 kts | 235° |
| 2026-04-24 16:40 | 46.06948 | -96.00071 | 33986 ft | 469 kts | 235° |
| 2026-04-24 16:41 | 46.03258 | -96.07716 | 33986 ft | 469 kts | 235° |
| 2026-04-24 16:41 | 45.99532 | -96.15417 | 33986 ft | 469 kts | 235° |
| 2026-04-24 16:42 | 45.95816 | -96.23075 | 33986 ft | 469 kts | 235° |
| 2026-04-24 16:42 | 45.92095 | -96.30724 | 33986 ft | 469 kts | 235° |
| 2026-04-24 16:43 | 45.88354 | -96.38390 | 33986 ft | 469 kts | 235° |
| 2026-04-24 16:43 | 45.84633 | -96.45998 | 33986 ft | 469 kts | 235° |
| 2026-04-24 16:44 | 45.80893 | -96.53623 | 33986 ft | 469 kts | 235° |
| 2026-04-24 16:44 | 45.77160 | -96.61212 | 33986 ft | 469 kts | 235° |
| 2026-04-24 16:45 | 45.73413 | -96.68811 | 33986 ft | 469 kts | 234° |
| 2026-04-24 16:45 | 45.69644 | -96.76433 | 33986 ft | 469 kts | 234° |
| 2026-04-24 16:46 | 45.65888 | -96.84010 | 33986 ft | 469 kts | 234° |
| 2026-04-24 16:46 | 45.62121 | -96.91586 | 33986 ft | 469 kts | 234° |
| 2026-04-24 16:47 | 45.58365 | -96.99120 | 33985 ft | 469 kts | 234° |
| 2026-04-24 16:47 | 45.54571 | -97.06712 | 33985 ft | 469 kts | 234° |
| 2026-04-24 16:48 | 45.50817 | -97.14203 | 33985 ft | 469 kts | 234° |
| 2026-04-24 16:48 | 45.47018 | -97.21764 | 33985 ft | 469 kts | 234° |
| 2026-04-24 16:49 | 45.43242 | -97.29258 | 33985 ft | 469 kts | 234° |
| 2026-04-24 16:49 | 45.39451 | -97.36763 | 33985 ft | 469 kts | 234° |
| 2026-04-24 16:50 | 45.35643 | -97.44282 | 33985 ft | 469 kts | 234° |
| 2026-04-24 16:50 | 45.31833 | -97.51784 | 33985 ft | 469 kts | 234° |
| 2026-04-24 16:51 | 45.28037 | -97.59242 | 33985 ft | 468 kts | 234° |
| 2026-04-24 16:51 | 45.24235 | -97.66689 | 33985 ft | 468 kts | 234° |
| 2026-04-24 16:52 | 45.20413 | -97.74156 | 33985 ft | 468 kts | 234° |
| 2026-04-24 16:52 | 45.16595 | -97.81596 | 33985 ft | 468 kts | 234° |
| 2026-04-24 16:53 | 45.12769 | -97.89033 | 33985 ft | 468 kts | 234° |
| 2026-04-24 16:53 | 45.08959 | -97.96420 | 33985 ft | 468 kts | 234° |
| 2026-04-24 16:54 | 45.05127 | -98.03829 | 33985 ft | 468 kts | 234° |
| 2026-04-24 16:54 | 45.01281 | -98.11248 | 33985 ft | 468 kts | 234° |
| 2026-04-24 16:55 | 44.97431 | -98.18652 | 33985 ft | 468 kts | 234° |
| 2026-04-24 16:55 | 44.93605 | -98.25993 | 33986 ft | 468 kts | 234° |
| 2026-04-24 16:56 | 44.89740 | -98.33391 | 33986 ft | 468 kts | 234° |
| 2026-04-24 16:56 | 44.85885 | -98.40749 | 33985 ft | 468 kts | 234° |
| 2026-04-24 16:57 | 44.82025 | -98.48099 | 33986 ft | 468 kts | 234° |
| 2026-04-24 16:57 | 44.78178 | -98.55405 | 33986 ft | 468 kts | 234° |
| 2026-04-24 16:58 | 44.74311 | -98.62730 | 33986 ft | 468 kts | 234° |
| 2026-04-24 16:58 | 44.70435 | -98.70055 | 33986 ft | 468 kts | 233° |
| 2026-04-24 16:59 | 44.66555 | -98.77368 | 33985 ft | 468 kts | 233° |
| 2026-04-24 17:00 | 44.60718 | -98.88333 | 33985 ft | 468 kts | 233° |
| 2026-04-24 17:00 | 44.54886 | -98.99249 | 33985 ft | 468 kts | 233° |
| 2026-04-24 17:01 | 44.49012 | -99.10200 | 33985 ft | 468 kts | 233° |
| 2026-04-24 17:02 | 44.43165 | -99.21059 | 33985 ft | 468 kts | 233° |
| 2026-04-24 17:02 | 44.39265 | -99.28281 | 33985 ft | 468 kts | 233° |
| 2026-04-24 17:03 | 44.33371 | -99.39160 | 33985 ft | 468 kts | 233° |
| 2026-04-24 17:04 | 44.29448 | -99.46379 | 33985 ft | 468 kts | 233° |
| 2026-04-24 17:04 | 44.23557 | -99.57185 | 33985 ft | 468 kts | 233° |
| 2026-04-24 17:05 | 44.19635 | -99.64358 | 33985 ft | 468 kts | 233° |
| 2026-04-24 17:06 | 44.13714 | -99.75152 | 33985 ft | 468 kts | 232° |
| 2026-04-24 17:06 | 44.07790 | -99.85912 | 33985 ft | 468 kts | 232° |
| 2026-04-24 17:07 | 44.03845 | -99.93054 | 33985 ft | 467 kts | 232° |
| 2026-04-24 17:08 | 43.96048 | -100.07439 | 33985 ft | 468 kts | 234° |
| 2026-04-24 17:08 | 43.92218 | -100.14716 | 33985 ft | 467 kts | 234° |
| 2026-04-24 17:09 | 43.84554 | -100.29192 | 33985 ft | 467 kts | 234° |
| 2026-04-24 17:10 | 43.76866 | -100.43624 | 33985 ft | 467 kts | 234° |
| 2026-04-24 17:12 | 43.61432 | -100.72376 | 33985 ft | 467 kts | 233° |
| 2026-04-24 18:54 | 35.87492 | -114.57718 | 33985 ft | 463 kts | 229° |
| 2026-04-24 18:55 | 35.81053 | -114.66575 | 33985 ft | 463 kts | 228° |
| 2026-04-24 18:56 | 35.76744 | -114.72489 | 33985 ft | 463 kts | 228° |
| 2026-04-24 18:56 | 35.72443 | -114.78384 | 33985 ft | 463 kts | 228° |
| 2026-04-24 18:57 | 35.68122 | -114.84293 | 33985 ft | 463 kts | 228° |
| 2026-04-24 18:57 | 35.63810 | -114.90190 | 33985 ft | 463 kts | 228° |
| 2026-04-24 18:58 | 35.59517 | -114.96062 | 33984 ft | 463 kts | 228° |
| 2026-04-24 18:58 | 35.55192 | -115.01968 | 33984 ft | 463 kts | 228° |
| 2026-04-24 18:59 | 35.50888 | -115.07834 | 33983 ft | 463 kts | 228° |
| 2026-04-24 18:59 | 35.46495 | -115.13625 | 33983 ft | 463 kts | 227° |
| 2026-04-24 19:00 | 35.42100 | -115.19349 | 33983 ft | 463 kts | 227° |
| 2026-04-24 19:00 | 35.37678 | -115.25105 | 33983 ft | 463 kts | 227° |
| 2026-04-24 19:01 | 35.33253 | -115.30862 | 33983 ft | 463 kts | 227° |
| 2026-04-24 19:01 | 35.28850 | -115.36581 | 33983 ft | 463 kts | 227° |
| 2026-04-24 19:02 | 35.25179 | -115.41344 | 33983 ft | 463 kts | 227° |
| 2026-04-24 19:02 | 35.20039 | -115.48001 | 33983 ft | 463 kts | 227° |
| 2026-04-24 19:03 | 35.15584 | -115.53762 | 33983 ft | 463 kts | 227° |
| 2026-04-24 19:03 | 35.11184 | -115.59437 | 33983 ft | 463 kts | 227° |
| 2026-04-24 19:04 | 35.06708 | -115.65162 | 33984 ft | 463 kts | 226° |
| 2026-04-24 19:04 | 35.02278 | -115.70821 | 33984 ft | 463 kts | 226° |
| 2026-04-24 19:05 | 34.97851 | -115.76465 | 33985 ft | 463 kts | 226° |
| 2026-04-24 19:05 | 34.93388 | -115.82149 | 33985 ft | 463 kts | 226° |
| 2026-04-24 19:06 | 34.88950 | -115.87789 | 33985 ft | 463 kts | 226° |
| 2026-04-24 19:06 | 34.84479 | -115.93463 | 33985 ft | 463 kts | 226° |
| 2026-04-24 19:07 | 34.80037 | -115.99091 | 33985 ft | 463 kts | 226° |
| 2026-04-24 19:07 | 34.76302 | -116.03821 | 33985 ft | 463 kts | 226° |
| 2026-04-24 19:08 | 34.71142 | -116.10399 | 33985 ft | 463 kts | 226° |
| 2026-04-24 19:08 | 34.66701 | -116.16051 | 33940 ft | 455 kts | 226° |
| 2026-04-24 19:08 | 34.64534 | -116.18806 | 33474 ft | 451 kts | 226° |
| 2026-04-24 19:09 | 34.62364 | -116.21561 | 32776 ft | 452 kts | 226° |
| 2026-04-24 19:09 | 34.60196 | -116.24312 | 32154 ft | 450 kts | 226° |
| 2026-04-24 19:09 | 34.58023 | -116.27066 | 31641 ft | 446 kts | 226° |
| 2026-04-24 19:09 | 34.55909 | -116.29744 | 31166 ft | 442 kts | 226° |
| 2026-04-24 19:10 | 34.53777 | -116.32442 | 30668 ft | 438 kts | 226° |
| 2026-04-24 19:10 | 34.51672 | -116.35104 | 30162 ft | 435 kts | 226° |
| 2026-04-24 19:10 | 34.49586 | -116.37740 | 29662 ft | 432 kts | 226° |
| 2026-04-24 19:10 | 34.47512 | -116.40359 | 29170 ft | 428 kts | 226° |
| 2026-04-24 19:11 | 34.45438 | -116.42975 | 28680 ft | 425 kts | 226° |
| 2026-04-24 19:11 | 34.43393 | -116.45553 | 27856 ft | 431 kts | 226° |
| 2026-04-24 19:11 | 34.41333 | -116.48151 | 27048 ft | 434 kts | 226° |
| 2026-04-24 19:11 | 34.39244 | -116.50792 | 26593 ft | 429 kts | 226° |
| 2026-04-24 19:12 | 34.37177 | -116.53456 | 25514 ft | 438 kts | 230° |
| 2026-04-24 19:12 | 34.35462 | -116.56394 | 25141 ft | 429 kts | 240° |
| 2026-04-24 19:12 | 34.34220 | -116.59629 | 25037 ft | 413 kts | 251° |
| 2026-04-24 19:12 | 34.33454 | -116.62888 | 24935 ft | 399 kts | 256° |
| 2026-04-24 19:13 | 34.32961 | -116.65036 | 24686 ft | 395 kts | 253° |
| 2026-04-24 19:13 | 34.31821 | -116.69215 | 23958 ft | 394 kts | 250° |
| 2026-04-24 19:13 | 34.30856 | -116.72345 | 23422 ft | 392 kts | 249° |
| 2026-04-24 19:13 | 34.29857 | -116.75395 | 22935 ft | 389 kts | 248° |
| 2026-04-24 19:14 | 34.28813 | -116.78373 | 22461 ft | 386 kts | 246° |
| 2026-04-24 19:14 | 34.27739 | -116.81303 | 21985 ft | 383 kts | 245° |
| 2026-04-24 19:14 | 34.26628 | -116.84251 | 21499 ft | 380 kts | 245° |
| 2026-04-24 19:14 | 34.25529 | -116.87104 | 21026 ft | 377 kts | 245° |
| 2026-04-24 19:15 | 34.24410 | -116.89960 | 20549 ft | 374 kts | 244° |
| 2026-04-24 19:15 | 34.23282 | -116.92815 | 20071 ft | 372 kts | 244° |
| 2026-04-24 19:15 | 34.22176 | -116.95594 | 19604 ft | 369 kts | 244° |
| 2026-04-24 19:15 | 34.21114 | -116.98370 | 19124 ft | 367 kts | 249° |
| 2026-04-24 19:16 | 34.19514 | -117.04172 | 18184 ft | 361 kts | 252° |
| 2026-04-24 19:16 | 34.18743 | -117.07047 | 17723 ft | 359 kts | 252° |
| 2026-04-24 19:16 | 34.17981 | -117.09876 | 17266 ft | 356 kts | 252° |
| 2026-04-24 19:17 | 34.17211 | -117.12723 | 17010 ft | 350 kts | 252° |
| 2026-04-24 19:17 | 34.16466 | -117.15473 | 16994 ft | 355 kts | 252° |
| 2026-04-24 19:17 | 34.15693 | -117.18298 | 16772 ft | 347 kts | 252° |
| 2026-04-24 19:17 | 34.14936 | -117.21048 | 16271 ft | 347 kts | 252° |
| 2026-04-24 19:18 | 34.14180 | -117.23797 | 15937 ft | 341 kts | 252° |
| 2026-04-24 19:18 | 34.13432 | -117.26510 | 15553 ft | 337 kts | 252° |
| 2026-04-24 19:18 | 34.12693 | -117.29190 | 15123 ft | 335 kts | 252° |
| 2026-04-24 19:18 | 34.11963 | -117.31837 | 14697 ft | 333 kts | 252° |
| 2026-04-24 19:19 | 34.11228 | -117.34499 | 14273 ft | 331 kts | 252° |
| 2026-04-24 19:19 | 34.10505 | -117.37115 | 13856 ft | 329 kts | 252° |
| 2026-04-24 19:19 | 34.09822 | -117.39752 | 13434 ft | 327 kts | 253° |
| 2026-04-24 19:19 | 34.09183 | -117.42358 | 13022 ft | 325 kts | 253° |
| 2026-04-24 19:20 | 34.08533 | -117.44986 | 12607 ft | 323 kts | 253° |
| 2026-04-24 19:20 | 34.07893 | -117.47553 | 12200 ft | 321 kts | 253° |
| 2026-04-24 19:20 | 34.07246 | -117.50137 | 11790 ft | 319 kts | 253° |
| 2026-04-24 19:20 | 34.06597 | -117.52691 | 11581 ft | 315 kts | 253° |
| 2026-04-24 19:21 | 34.05950 | -117.55220 | 11423 ft | 319 kts | 253° |
| 2026-04-24 19:21 | 34.05291 | -117.57798 | 11190 ft | 317 kts | 253° |
| 2026-04-24 19:21 | 34.04646 | -117.60319 | 10940 ft | 316 kts | 253° |
| 2026-04-24 19:21 | 34.04001 | -117.62836 | 10687 ft | 314 kts | 253° |
| 2026-04-24 19:22 | 34.03573 | -117.64508 | 10519 ft | 311 kts | 253° |
| 2026-04-24 19:22 | 34.02732 | -117.67785 | 10191 ft | 302 kts | 252° |
| 2026-04-24 19:22 | 34.02193 | -117.70216 | 9945 ft | 295 kts | 260° |
| 2026-04-24 19:22 | 34.01915 | -117.72636 | 9627 ft | 292 kts | 263° |
| 2026-04-24 19:23 | 34.01662 | -117.75047 | 9281 ft | 291 kts | 262° |
| 2026-04-24 19:23 | 34.01388 | -117.77454 | 8976 ft | 287 kts | 262° |
| 2026-04-24 19:23 | 34.01120 | -117.79828 | 8680 ft | 284 kts | 262° |
| 2026-04-24 19:23 | 34.00856 | -117.82193 | 8383 ft | 281 kts | 262° |
| 2026-04-24 19:24 | 34.00604 | -117.84515 | 8094 ft | 275 kts | 263° |
| 2026-04-24 19:24 | 34.00370 | -117.86781 | 7810 ft | 268 kts | 263° |
| 2026-04-24 19:24 | 34.00152 | -117.89003 | 7529 ft | 267 kts | 263° |
| 2026-04-24 19:24 | 33.99941 | -117.91195 | 7247 ft | 266 kts | 263° |
| 2026-04-24 19:25 | 33.99731 | -117.93405 | 6959 ft | 265 kts | 263° |
| 2026-04-24 19:25 | 33.99525 | -117.95602 | 6671 ft | 264 kts | 263° |
| 2026-04-24 19:25 | 33.99320 | -117.97793 | 6380 ft | 263 kts | 263° |
| 2026-04-24 19:25 | 33.99118 | -117.99963 | 6089 ft | 261 kts | 263° |
| 2026-04-24 19:26 | 33.98917 | -118.02138 | 5796 ft | 260 kts | 264° |
| 2026-04-24 19:26 | 33.98718 | -118.04294 | 5502 ft | 259 kts | 264° |
| 2026-04-24 19:26 | 33.98519 | -118.06448 | 5206 ft | 258 kts | 264° |
| 2026-04-24 19:26 | 33.98317 | -118.08626 | 4904 ft | 257 kts | 264° |
| 2026-04-24 19:27 | 33.98118 | -118.10754 | 4606 ft | 256 kts | 263° |
| 2026-04-24 19:27 | 33.97920 | -118.12860 | 4308 ft | 252 kts | 263° |
| 2026-04-24 19:27 | 33.97725 | -118.14944 | 4013 ft | 246 kts | 264° |
| 2026-04-24 19:27 | 33.97538 | -118.16956 | 3728 ft | 241 kts | 264° |
| 2026-04-24 19:28 | 33.97350 | -118.18948 | 3418 ft | 234 kts | 263° |
| 2026-04-24 19:28 | 33.97171 | -118.20830 | 3142 ft | 217 kts | 263° |
| 2026-04-24 19:28 | 33.97004 | -118.22577 | 2895 ft | 204 kts | 263° |
| 2026-04-24 19:28 | 33.96842 | -118.24224 | 2661 ft | 193 kts | 263° |
| 2026-04-24 19:29 | 33.96541 | -118.27219 | 2254 ft | 178 kts | 263° |
| 2026-04-24 19:29 | 33.96390 | -118.28696 | 2026 ft | 175 kts | 263° |
| 2026-04-24 19:29 | 33.96242 | -118.30141 | 1798 ft | 174 kts | 263° |
| 2026-04-24 19:30 | 33.96093 | -118.31596 | 1567 ft | 174 kts | 263° |
| 2026-04-24 19:30 | 33.95946 | -118.33037 | 1336 ft | 173 kts | 263° |
| 2026-04-24 19:30 | 33.95800 | -118.34462 | 1106 ft | 172 kts | 263° |
| 2026-04-24 19:30 | 33.95653 | -118.35892 | 873 ft | 172 kts | 263° |
| 2026-04-24 19:31 | 33.95506 | -118.37326 | 639 ft | 171 kts | 263° |
| 2026-04-24 19:31 | 33.95361 | -118.38743 | 408 ft | 171 kts | 263° |
| 2026-04-24 19:31 | 33.95214 | -118.40170 | 177 ft | 170 kts | 263° |
| 2026-04-24 19:31 | 33.95091 | -118.41439 | 133 ft | 102 kts | 265° |
| 2026-04-24 19:32 | 33.95041 | -118.41918 | 133 ft | 46 kts | 257° |
| 2026-04-24 19:32 | 33.94959 | -118.42173 | 132 ft | 16 kts | 236° |
| 2026-04-24 19:32 | 33.94878 | -118.42255 | 130 ft | 10 kts | 227° |
| 2026-04-24 19:32 | 33.94826 | -118.42288 | 129 ft | 8 kts | 181° |
| 2026-04-24 19:33 | 33.94760 | -118.42279 | 129 ft | 10 kts | 173° |
| 2026-04-24 19:33 | 33.94691 | -118.42252 | 128 ft | 10 kts | 123° |
| 2026-04-24 19:33 | 33.94691 | -118.42165 | 129 ft | 10 kts | 82° |
| 2026-04-24 19:33 | 33.94701 | -118.42075 | 130 ft | 10 kts | 82° |
| 2026-04-24 19:34 | 33.94711 | -118.41984 | 130 ft | 10 kts | 84° |
| 2026-04-24 19:34 | 33.94719 | -118.41891 | 131 ft | 10 kts | 84° |
| 2026-04-24 19:34 | 33.94727 | -118.41801 | 132 ft | 10 kts | 84° |
| 2026-04-24 19:34 | 33.94734 | -118.41711 | 133 ft | 11 kts | 84° |
| 2026-04-24 19:35 | 33.94743 | -118.41618 | 133 ft | 11 kts | 82° |
| 2026-04-24 19:35 | 33.94756 | -118.41525 | 134 ft | 11 kts | 80° |
| 2026-04-24 19:35 | 33.94759 | -118.41432 | 135 ft | 11 kts | 111° |
| 2026-04-24 19:35 | 33.94691 | -118.41386 | 134 ft | 12 kts | 173° |
| 2026-04-24 19:36 | 33.94601 | -118.41373 | 134 ft | 13 kts | 173° |
| 2026-04-24 19:36 | 33.94503 | -118.41357 | 133 ft | 14 kts | 173° |
| 2026-04-24 19:36 | 33.94398 | -118.41343 | 132 ft | 15 kts | 173° |
| 2026-04-24 19:36 | 33.94304 | -118.41328 | 133 ft | 11 kts | 173° |
| 2026-04-24 19:37 | 33.94230 | -118.41318 | 135 ft | 10 kts | 173° |
| 2026-04-24 19:37 | 33.94152 | -118.41306 | 134 ft | 11 kts | 173° |
| 2026-04-24 19:37 | 33.94079 | -118.41294 | 134 ft | 9 kts | 165° |
| 2026-04-24 19:37 | 33.94049 | -118.41238 | 135 ft | 8 kts | 92° |
| 2026-04-24 19:38 | 33.94009 | -118.41195 | 135 ft | 9 kts | 160° |
| 2026-04-24 19:38 | 33.93948 | -118.41180 | 137 ft | 7 kts | 149° |
| 2026-04-24 19:38 | 33.93936 | -118.41133 | 138 ft | 5 kts | 85° |
| 2026-04-24 19:38 | 33.93941 | -118.41087 | 139 ft | 5 kts | 83° |
| 2026-04-24 19:39 | 33.93943 | -118.41067 | 139 ft | 0 kts | 83° |
| 2026-04-24 19:39 | 33.93943 | -118.41066 | 139 ft | 0 kts | 83° |